PWSweather.com
Personal Weather Stations
Station Observations
SKYDIVEKS
Skydive Kansas, Osage City, KS 66523

Skydive KansasOsage City, KS 66523

Lat: 38.636, Lon: -95.803

Elevation: 1080

Station Type: La Crosse

http://www.skydivekansas.com

Latest ConditionsUpdated 12:15:01 PM CDT Friday, Jul 3, 2015
Currently Today's Max Today's Min Today's Average
Temperature 81.7°F27.6°C 81.7°F27.6°C 71.2°F21.8°C 72.4°F22.4°C
Dew Point 68.3°F20.2°C 68.3°F20.2°C 61.9°F16.6°C 63.5°F17.5°C
Winds 10.5 mph ENE16.9 kmh ENE 33.3 mph N53.6 kmh N - 4.2 mph 6.8 kmh
Wind Gusts 13.9 mph22.4 kmh 46.1 mph74.2 kmh - -
Humidity 64% 76% 64% 74%
Pressure 28.93 in979.7 mb 28.94 in980.0 mb 28.85 in977.0 mb -
Hour Temp Dew Point Humidity Winds Wind Gusts Pressure Precip Precip Rate Daily Precip Total
12:15 PM 81.7°F27.6°C 68.3°F20.2°C 64% 10.5 mph ENE16.9 kmh ENE 13.9 mph22.4 kmh 28.93 in979.7 mb 0.00 in0.0 mm 0.00 in0.0 mm 0.00 in0.0 mm
12:14 PM 81.3°F27.4°C 67.9°F19.9°C 64% 9.6 mph ENE15.4 kmh ENE 13.9 mph22.4 kmh 28.93 in979.7 mb 0.00 in0.0 mm 0.00 in0.0 mm 0.00 in0.0 mm
12:13 PM 81.1°F27.3°C 68.2°F20.1°C 65% 9.8 mph ENE15.8 kmh ENE 13.9 mph22.4 kmh 28.93 in979.7 mb 0.00 in0.0 mm 0.00 in0.0 mm 0.00 in0.0 mm
12:12 PM 81.1°F27.3°C 68.2°F20.1°C 65% 6.7 mph ENE10.8 kmh ENE 13.9 mph22.4 kmh 28.93 in979.7 mb 0.00 in0.0 mm 0.00 in0.0 mm 0.00 in0.0 mm
12:11 PM 80.8°F27.1°C 67.9°F19.9°C 65% 7.8 mph ENE12.6 kmh ENE 13.9 mph22.4 kmh 28.93 in979.7 mb 0.00 in0.0 mm 0.00 in0.0 mm 0.00 in0.0 mm
12:10 PM 80.6°F27.0°C 68.2°F20.1°C 66% 6.5 mph ENE10.5 kmh ENE 13.9 mph22.4 kmh 28.94 in980.0 mb 0.00 in0.0 mm 0.00 in0.0 mm 0.00 in0.0 mm
12:09 PM 80.4°F26.9°C 68.0°F20.0°C 66% 5.8 mph ENE9.3 kmh ENE 13.9 mph22.4 kmh 28.94 in980.0 mb 0.00 in0.0 mm 0.00 in0.0 mm 0.00 in0.0 mm
12:08 PM 80.4°F26.9°C 68.0°F20.0°C 66% 1.6 mph ENE2.6 kmh ENE 13.9 mph22.4 kmh 28.94 in980.0 mb 0.00 in0.0 mm 0.00 in0.0 mm 0.00 in0.0 mm
12:07 PM 80.2°F26.8°C 67.8°F19.9°C 66% 6.0 mph NE9.7 kmh NE 13.9 mph22.4 kmh 28.93 in979.7 mb 0.00 in0.0 mm 0.00 in0.0 mm 0.00 in0.0 mm
12:06 PM 80.2°F26.8°C 67.8°F19.9°C 66% 9.2 mph NE14.8 kmh NE 12.8 mph20.6 kmh 28.93 in979.7 mb 0.00 in0.0 mm 0.00 in0.0 mm 0.00 in0.0 mm
12:05 PM 79.9°F26.6°C 67.5°F19.7°C 66% 7.4 mph NE11.9 kmh NE 12.8 mph20.6 kmh 28.94 in980.0 mb 0.00 in0.0 mm 0.00 in0.0 mm 0.00 in0.0 mm
12:04 PM 79.7°F26.5°C 67.3°F19.6°C 66% 4.7 mph NE7.6 kmh NE 12.8 mph20.6 kmh 28.93 in979.7 mb 0.00 in0.0 mm 0.00 in0.0 mm 0.00 in0.0 mm
12:03 PM 79.5°F26.4°C 67.6°F19.8°C 67% 7.8 mph NE12.6 kmh NE 12.8 mph20.6 kmh 28.93 in979.7 mb 0.00 in0.0 mm 0.00 in0.0 mm 0.00 in0.0 mm
12:02 PM 79.5°F26.4°C 67.6°F19.8°C 67% 8.3 mph NE13.4 kmh NE 12.8 mph20.6 kmh 28.93 in979.7 mb 0.00 in0.0 mm 0.00 in0.0 mm 0.00 in0.0 mm
12:01 PM 79.3°F26.3°C 67.4°F19.7°C 67% 4.3 mph NE6.9 kmh NE 12.8 mph20.6 kmh 28.93 in979.7 mb 0.00 in0.0 mm 0.00 in0.0 mm 0.00 in0.0 mm
12:00 PM 79.2°F26.2°C 67.2°F19.6°C 67% 10.5 mph NE16.9 kmh NE 12.8 mph20.6 kmh 28.93 in979.7 mb 0.00 in0.0 mm 0.00 in0.0 mm 0.00 in0.0 mm
11:59 AM 79.0°F26.1°C 67.5°F19.7°C 68% 8.1 mph NE13.0 kmh NE 12.5 mph20.1 kmh 28.93 in979.7 mb 0.00 in0.0 mm 0.00 in0.0 mm 0.00 in0.0 mm
11:58 AM 79.0°F26.1°C 67.5°F19.7°C 68% 3.4 mph NE5.5 kmh NE 11.4 mph18.3 kmh 28.93 in979.7 mb 0.00 in0.0 mm 0.00 in0.0 mm 0.00 in0.0 mm
11:57 AM 78.6°F25.9°C 67.1°F19.5°C 68% 6.5 mph NE10.5 kmh NE 11.4 mph18.3 kmh 28.93 in979.7 mb 0.00 in0.0 mm 0.00 in0.0 mm 0.00 in0.0 mm
11:56 AM 78.6°F25.9°C 67.1°F19.5°C 68% 4.9 mph NE7.9 kmh NE 11.4 mph18.3 kmh 28.93 in979.7 mb 0.00 in0.0 mm 0.00 in0.0 mm 0.00 in0.0 mm
11:55 AM 78.4°F25.8°C 67.4°F19.7°C 69% 3.4 mph NE5.5 kmh NE 11.4 mph18.3 kmh 28.93 in979.7 mb 0.00 in0.0 mm 0.00 in0.0 mm 0.00 in0.0 mm
11:54 AM 78.1°F25.6°C 67.1°F19.5°C 69% 6.3 mph NE10.1 kmh NE 11.4 mph18.3 kmh 28.94 in980.0 mb 0.00 in0.0 mm 0.00 in0.0 mm 0.00 in0.0 mm
11:53 AM 78.1°F25.6°C 67.1°F19.5°C 69% 5.6 mph NE9.0 kmh NE 11.4 mph18.3 kmh 28.93 in979.7 mb 0.00 in0.0 mm 0.00 in0.0 mm 0.00 in0.0 mm
11:52 AM 77.9°F25.5°C 66.9°F19.4°C 69% 4.5 mph NE7.2 kmh NE 11.4 mph18.3 kmh 28.94 in980.0 mb 0.00 in0.0 mm 0.00 in0.0 mm 0.00 in0.0 mm
11:51 AM 77.7°F25.4°C 67.2°F19.6°C 70% 7.2 mph NE11.6 kmh NE 11.4 mph18.3 kmh 28.93 in979.7 mb 0.00 in0.0 mm 0.00 in0.0 mm 0.00 in0.0 mm
11:50 AM 77.5°F25.3°C 67.0°F19.4°C 70% 7.4 mph NE11.9 kmh NE 11.4 mph18.3 kmh 28.93 in979.7 mb 0.00 in0.0 mm 0.00 in0.0 mm 0.00 in0.0 mm
11:49 AM 77.4°F25.2°C 66.9°F19.4°C 70% 3.1 mph NE5.0 kmh NE 11.4 mph18.3 kmh 28.94 in980.0 mb 0.00 in0.0 mm 0.00 in0.0 mm 0.00 in0.0 mm
11:48 AM 77.2°F25.1°C 66.7°F19.3°C 70% 3.6 mph NE5.8 kmh NE 11.4 mph18.3 kmh 28.94 in980.0 mb 0.00 in0.0 mm 0.00 in0.0 mm 0.00 in0.0 mm
11:47 AM 77.0°F25.0°C 66.6°F19.2°C 70% 3.6 mph NE5.8 kmh NE 11.4 mph18.3 kmh 28.94 in980.0 mb 0.00 in0.0 mm 0.00 in0.0 mm 0.00 in0.0 mm
11:46 AM 76.8°F24.9°C 66.8°F19.3°C 71% 11.4 mph NE18.3 kmh NE 11.4 mph18.3 kmh 28.94 in980.0 mb 0.00 in0.0 mm 0.00 in0.0 mm 0.00 in0.0 mm
11:45 AM 76.8°F24.9°C 66.8°F19.3°C 71% 4.5 mph NE7.2 kmh NE 11.6 mph18.7 kmh 28.94 in980.0 mb 0.00 in0.0 mm 0.00 in0.0 mm 0.00 in0.0 mm
11:44 AM 76.6°F24.8°C 66.6°F19.2°C 71% 8.9 mph NE14.3 kmh NE 11.9 mph19.2 kmh 28.93 in979.7 mb 0.00 in0.0 mm 0.00 in0.0 mm 0.00 in0.0 mm
11:43 AM 76.5°F24.7°C 66.4°F19.1°C 71% 3.6 mph NE5.8 kmh NE 12.5 mph20.1 kmh 28.93 in979.7 mb 0.00 in0.0 mm 0.00 in0.0 mm 0.00 in0.0 mm
11:42 AM 76.3°F24.6°C 66.2°F19.0°C 71% 5.6 mph NE9.0 kmh NE 12.5 mph20.1 kmh 28.93 in979.7 mb 0.00 in0.0 mm 0.00 in0.0 mm 0.00 in0.0 mm
11:41 AM 76.3°F24.6°C 66.2°F19.0°C 71% 8.7 mph NE14.0 kmh NE 12.5 mph20.1 kmh 28.93 in979.7 mb 0.00 in0.0 mm 0.00 in0.0 mm 0.00 in0.0 mm
11:40 AM 76.1°F24.5°C 66.4°F19.1°C 72% 7.6 mph NE12.2 kmh NE 12.5 mph20.1 kmh 28.94 in980.0 mb 0.00 in0.0 mm 0.00 in0.0 mm 0.00 in0.0 mm
11:39 AM 75.9°F24.4°C 66.3°F19.1°C 72% 8.9 mph NE14.3 kmh NE 22.8 mph36.7 kmh 28.93 in979.7 mb 0.00 in0.0 mm 0.00 in0.0 mm 0.00 in0.0 mm
11:38 AM 75.7°F24.3°C 66.1°F18.9°C 72% 5.8 mph NE9.3 kmh NE 22.8 mph36.7 kmh 28.94 in980.0 mb 0.00 in0.0 mm 0.00 in0.0 mm 0.00 in0.0 mm
11:37 AM 75.6°F24.2°C 65.9°F18.8°C 72% 10.1 mph NE16.3 kmh NE 22.8 mph36.7 kmh 28.94 in980.0 mb 0.00 in0.0 mm 0.00 in0.0 mm 0.00 in0.0 mm
11:36 AM 75.4°F24.1°C 66.1°F18.9°C 73% 6.7 mph NE10.8 kmh NE 22.8 mph36.7 kmh 28.94 in980.0 mb 0.00 in0.0 mm 0.00 in0.0 mm 0.00 in0.0 mm
11:35 AM 75.0°F23.9°C 65.8°F18.8°C 73% 11.9 mph NE19.2 kmh NE 22.8 mph36.7 kmh 28.94 in980.0 mb 0.00 in0.0 mm 0.00 in0.0 mm 0.00 in0.0 mm
11:34 AM 74.8°F23.8°C 66.0°F18.9°C 74% 7.4 mph NE11.9 kmh NE 22.8 mph36.7 kmh 28.94 in980.0 mb 0.00 in0.0 mm 0.00 in0.0 mm 0.00 in0.0 mm
11:33 AM 74.7°F23.7°C 65.8°F18.8°C 74% 7.8 mph NE12.6 kmh NE 22.8 mph36.7 kmh 28.94 in980.0 mb 0.00 in0.0 mm 0.00 in0.0 mm 0.00 in0.0 mm
11:32 AM 74.3°F23.5°C 65.5°F18.6°C 74% 9.2 mph NE14.8 kmh NE 22.8 mph36.7 kmh 28.94 in980.0 mb 0.00 in0.0 mm 0.00 in0.0 mm 0.00 in0.0 mm
11:31 AM 74.1°F23.4°C 65.3°F18.5°C 74% 4.0 mph NE6.4 kmh NE 22.8 mph36.7 kmh 28.94 in980.0 mb 0.00 in0.0 mm 0.00 in0.0 mm 0.00 in0.0 mm
11:30 AM 73.9°F23.3°C 65.2°F18.4°C 74% 8.9 mph NE14.3 kmh NE 22.8 mph36.7 kmh 28.94 in980.0 mb 0.00 in0.0 mm 0.00 in0.0 mm 0.00 in0.0 mm
11:29 AM 73.8°F23.2°C 65.0°F18.3°C 74% 10.1 mph NE16.3 kmh NE 12.3 mph19.8 kmh 28.94 in980.0 mb 0.00 in0.0 mm 0.00 in0.0 mm 0.00 in0.0 mm
11:28 AM 73.6°F23.1°C 64.8°F18.2°C 74% 8.1 mph NE13.0 kmh NE 12.3 mph19.8 kmh 28.94 in980.0 mb 0.00 in0.0 mm 0.00 in0.0 mm 0.00 in0.0 mm
11:27 AM 73.6°F23.1°C 64.8°F18.2°C 74% 4.7 mph NE7.6 kmh NE 11.2 mph18.0 kmh 28.94 in980.0 mb 0.00 in0.0 mm 0.00 in0.0 mm 0.00 in0.0 mm
11:26 AM 73.2°F22.9°C 64.5°F18.1°C 74% 8.7 mph NE14.0 kmh NE 11.2 mph18.0 kmh 28.94 in980.0 mb 0.00 in0.0 mm 0.00 in0.0 mm 0.00 in0.0 mm
11:25 AM 73.2°F22.9°C 64.8°F18.2°C 75% 6.3 mph NE10.1 kmh NE 12.5 mph20.1 kmh 28.94 in980.0 mb 0.00 in0.0 mm 0.00 in0.0 mm 0.00 in0.0 mm
11:24 AM 73.0°F22.8°C 64.7°F18.2°C 75% 6.5 mph NNE10.5 kmh NNE 12.5 mph20.1 kmh 28.94 in980.0 mb 0.00 in0.0 mm 0.00 in0.0 mm 0.00 in0.0 mm
11:23 AM 72.9°F22.7°C 64.5°F18.1°C 75% 5.4 mph NNE8.7 kmh NNE 12.5 mph20.1 kmh 28.94 in980.0 mb 0.00 in0.0 mm 0.00 in0.0 mm 0.00 in0.0 mm
11:22 AM 72.7°F22.6°C 64.3°F17.9°C 75% 11.0 mph NNE17.7 kmh NNE 12.5 mph20.1 kmh 28.94 in980.0 mb 0.00 in0.0 mm 0.00 in0.0 mm 0.00 in0.0 mm
11:21 AM 72.7°F22.6°C 64.3°F17.9°C 75% 7.6 mph NE12.2 kmh NE 24.2 mph38.9 kmh 28.94 in980.0 mb 0.00 in0.0 mm 0.00 in0.0 mm 0.00 in0.0 mm
11:20 AM 72.5°F22.5°C 64.1°F17.8°C 75% 5.8 mph NE9.3 kmh NE 24.2 mph38.9 kmh 28.94 in980.0 mb 0.00 in0.0 mm 0.00 in0.0 mm 0.00 in0.0 mm
11:19 AM 72.3°F22.4°C 64.0°F17.8°C 75% 3.8 mph NE6.1 kmh NE 24.2 mph38.9 kmh 28.94 in980.0 mb 0.00 in0.0 mm 0.00 in0.0 mm 0.00 in0.0 mm
11:18 AM 72.3°F22.4°C 64.0°F17.8°C 75% 2.9 mph NE4.7 kmh NE 24.2 mph38.9 kmh 28.94 in980.0 mb 0.00 in0.0 mm 0.00 in0.0 mm 0.00 in0.0 mm
11:17 AM 72.1°F22.3°C 63.8°F17.7°C 75% 5.6 mph NE9.0 kmh NE 24.2 mph38.9 kmh 28.94 in980.0 mb 0.00 in0.0 mm 0.00 in0.0 mm 0.00 in0.0 mm
11:16 AM 72.1°F22.3°C 63.8°F17.7°C 75% 9.6 mph NE15.4 kmh NE 24.2 mph38.9 kmh 28.94 in980.0 mb 0.00 in0.0 mm 0.00 in0.0 mm 0.00 in0.0 mm
11:15 AM 72.1°F22.3°C 63.8°F17.7°C 75% 7.6 mph NE12.2 kmh NE 24.2 mph38.9 kmh 28.94 in980.0 mb 0.00 in0.0 mm 0.00 in0.0 mm 0.00 in0.0 mm
11:14 AM 72.1°F22.3°C 63.6°F17.6°C 75% 10.3 mph NE16.6 kmh NE 24.2 mph38.9 kmh 28.94 in980.0 mb 0.00 in0.0 mm 0.00 in0.0 mm 0.00 in0.0 mm
11:13 AM 72.0°F22.2°C 63.6°F17.6°C 75% 5.1 mph NE8.2 kmh NE 24.2 mph38.9 kmh 28.94 in980.0 mb 0.00 in0.0 mm 0.00 in0.0 mm 0.00 in0.0 mm
11:12 AM 72.0°F22.2°C 63.6°F17.6°C 75% 10.3 mph NE16.6 kmh NE 24.8 mph39.9 kmh 28.94 in980.0 mb 0.00 in0.0 mm 0.00 in0.0 mm 0.00 in0.0 mm
11:11 AM 71.8°F22.1°C 63.4°F17.4°C 75% 8.3 mph NE13.4 kmh NE 24.8 mph39.9 kmh 28.94 in980.0 mb 0.00 in0.0 mm 0.00 in0.0 mm 0.00 in0.0 mm
11:10 AM 71.8°F22.1°C 63.4°F17.4°C 75% 8.1 mph NE13.0 kmh NE 24.8 mph39.9 kmh 28.94 in980.0 mb 0.00 in0.0 mm 0.00 in0.0 mm 0.00 in0.0 mm
11:09 AM 71.8°F22.1°C 63.4°F17.4°C 75% 8.1 mph NE13.0 kmh NE 24.8 mph39.9 kmh 28.94 in980.0 mb 0.00 in0.0 mm 0.00 in0.0 mm 0.00 in0.0 mm
11:08 AM 71.8°F22.1°C 63.4°F17.4°C 75% 2.7 mph NE4.3 kmh NE 24.8 mph39.9 kmh 28.94 in980.0 mb 0.00 in0.0 mm 0.00 in0.0 mm 0.00 in0.0 mm
11:07 AM 71.8°F22.1°C 63.4°F17.4°C 75% 6.9 mph NE11.1 kmh NE 24.8 mph39.9 kmh 28.94 in980.0 mb 0.00 in0.0 mm 0.00 in0.0 mm 0.00 in0.0 mm
11:06 AM 71.8°F22.1°C 63.4°F17.4°C 75% 7.6 mph NE12.2 kmh NE 24.8 mph39.9 kmh 28.94 in980.0 mb 0.00 in0.0 mm 0.00 in0.0 mm 0.00 in0.0 mm
11:05 AM 71.8°F22.1°C 63.4°F17.4°C 75% 9.2 mph NE14.8 kmh NE 24.8 mph39.9 kmh 28.93 in979.7 mb 0.00 in0.0 mm 0.00 in0.0 mm 0.00 in0.0 mm
11:04 AM 71.8°F22.1°C 63.4°F17.4°C 75% 9.2 mph NE14.8 kmh NE 24.8 mph39.9 kmh 28.93 in979.7 mb 0.00 in0.0 mm 0.00 in0.0 mm 0.00 in0.0 mm
11:03 AM 71.8°F22.1°C 63.4°F17.4°C 75% 8.1 mph NE13.0 kmh NE 24.8 mph39.9 kmh 28.93 in979.7 mb 0.00 in0.0 mm 0.00 in0.0 mm 0.00 in0.0 mm
11:02 AM 71.8°F22.1°C 63.4°F17.4°C 75% 11.0 mph NE17.7 kmh NE 22.8 mph36.7 kmh 28.94 in980.0 mb 0.00 in0.0 mm 0.00 in0.0 mm 0.00 in0.0 mm
11:01 AM 71.8°F22.1°C 63.4°F17.4°C 75% 7.4 mph NE11.9 kmh NE 22.8 mph36.7 kmh 28.93 in979.7 mb 0.00 in0.0 mm 0.00 in0.0 mm 0.00 in0.0 mm
11:00 AM 71.8°F22.1°C 63.4°F17.4°C 75% 6.5 mph NE10.5 kmh NE 22.8 mph36.7 kmh 28.93 in979.7 mb 0.00 in0.0 mm 0.00 in0.0 mm 0.00 in0.0 mm
10:59 AM 71.8°F22.1°C 63.4°F17.4°C 75% 8.3 mph NE13.4 kmh NE 22.8 mph36.7 kmh 28.93 in979.7 mb 0.00 in0.0 mm 0.00 in0.0 mm 0.00 in0.0 mm
10:58 AM 71.8°F22.1°C 63.4°F17.4°C 75% 10.1 mph NE16.3 kmh NE 22.8 mph36.7 kmh 28.93 in979.7 mb 0.00 in0.0 mm 0.00 in0.0 mm 0.00 in0.0 mm
10:57 AM 71.8°F22.1°C 63.4°F17.4°C 75% 9.6 mph NE15.4 kmh NE 22.8 mph36.7 kmh 28.94 in980.0 mb 0.00 in0.0 mm 0.00 in0.0 mm 0.00 in0.0 mm
10:56 AM 71.8°F22.1°C 63.4°F17.4°C 75% 6.3 mph NE10.1 kmh NE 22.8 mph36.7 kmh 28.93 in979.7 mb 0.00 in0.0 mm 0.00 in0.0 mm 0.00 in0.0 mm
10:55 AM 71.8°F22.1°C 63.4°F17.4°C 75% 13.6 mph NE21.9 kmh NE 14.1 mph22.7 kmh 28.94 in980.0 mb 0.00 in0.0 mm 0.00 in0.0 mm 0.00 in0.0 mm
10:54 AM 71.8°F22.1°C 63.4°F17.4°C 75% 9.6 mph NE15.4 kmh NE 13.6 mph21.9 kmh 28.93 in979.7 mb 0.00 in0.0 mm 0.00 in0.0 mm 0.00 in0.0 mm
10:53 AM 71.8°F22.1°C 63.4°F17.4°C 75% 8.9 mph NE14.3 kmh NE 13.6 mph21.9 kmh 28.94 in980.0 mb 0.00 in0.0 mm 0.00 in0.0 mm 0.00 in0.0 mm
10:52 AM 71.8°F22.1°C 63.4°F17.4°C 75% 3.8 mph NE6.1 kmh NE 13.6 mph21.9 kmh 28.93 in979.7 mb 0.00 in0.0 mm 0.00 in0.0 mm 0.00 in0.0 mm
10:51 AM 71.8°F22.1°C 63.4°F17.4°C 75% 5.1 mph NE8.2 kmh NE 13.6 mph21.9 kmh 28.93 in979.7 mb 0.00 in0.0 mm 0.00 in0.0 mm 0.00 in0.0 mm
10:50 AM 71.8°F22.1°C 63.4°F17.4°C 75% 9.6 mph NE15.4 kmh NE 13.6 mph21.9 kmh 28.93 in979.7 mb 0.00 in0.0 mm 0.00 in0.0 mm 0.00 in0.0 mm
10:49 AM 71.8°F22.1°C 63.4°F17.4°C 75% 9.6 mph NE15.4 kmh NE 13.6 mph21.9 kmh 28.93 in979.7 mb 0.00 in0.0 mm 0.00 in0.0 mm 0.00 in0.0 mm
10:48 AM 71.6°F22.0°C 63.2°F17.3°C 75% 11.2 mph NE18.0 kmh NE 13.6 mph21.9 kmh 28.94 in980.0 mb 0.00 in0.0 mm 0.00 in0.0 mm 0.00 in0.0 mm
10:47 AM 71.6°F22.0°C 63.2°F17.3°C 75% 2.5 mph NE4.0 kmh NE 13.0 mph20.9 kmh 28.93 in979.7 mb 0.00 in0.0 mm 0.00 in0.0 mm 0.00 in0.0 mm
10:46 AM 71.6°F22.0°C 63.2°F17.3°C 75% 7.6 mph NE12.2 kmh NE 13.0 mph20.9 kmh 28.93 in979.7 mb 0.00 in0.0 mm 0.00 in0.0 mm 0.00 in0.0 mm
10:45 AM 71.4°F21.9°C 63.0°F17.2°C 75% 9.6 mph NE15.4 kmh NE 13.0 mph20.9 kmh 28.93 in979.7 mb 0.00 in0.0 mm 0.00 in0.0 mm 0.00 in0.0 mm
10:44 AM 71.4°F21.9°C 63.0°F17.2°C 75% 7.4 mph NE11.9 kmh NE 13.0 mph20.9 kmh 28.93 in979.7 mb 0.00 in0.0 mm 0.00 in0.0 mm 0.00 in0.0 mm
10:43 AM 71.4°F21.9°C 63.0°F17.2°C 75% 8.1 mph NE13.0 kmh NE 13.0 mph20.9 kmh 28.93 in979.7 mb 0.00 in0.0 mm 0.00 in0.0 mm 0.00 in0.0 mm
10:42 AM 71.4°F21.9°C 63.0°F17.2°C 75% 6.9 mph NE11.1 kmh NE 13.0 mph20.9 kmh 28.93 in979.7 mb 0.00 in0.0 mm 0.00 in0.0 mm 0.00 in0.0 mm
10:41 AM 71.4°F21.9°C 63.0°F17.2°C 75% 6.0 mph NE9.7 kmh NE 12.1 mph19.5 kmh 28.93 in979.7 mb 0.00 in0.0 mm 0.00 in0.0 mm 0.00 in0.0 mm
10:40 AM 71.4°F21.9°C 63.0°F17.2°C 75% 3.8 mph NE6.1 kmh NE 12.1 mph19.5 kmh 28.93 in979.7 mb 0.00 in0.0 mm 0.00 in0.0 mm 0.00 in0.0 mm
10:39 AM 71.4°F21.9°C 63.0°F17.2°C 75% 7.4 mph NE11.9 kmh NE 12.1 mph19.5 kmh 28.93 in979.7 mb 0.00 in0.0 mm 0.00 in0.0 mm 0.00 in0.0 mm
10:38 AM 71.4°F21.9°C 63.0°F17.2°C 75% 9.2 mph NE14.8 kmh NE 12.1 mph19.5 kmh 28.93 in979.7 mb 0.00 in0.0 mm 0.00 in0.0 mm 0.00 in0.0 mm
10:37 AM 71.4°F21.9°C 63.0°F17.2°C 75% 8.5 mph NE13.7 kmh NE 12.1 mph19.5 kmh 28.93 in979.7 mb 0.00 in0.0 mm 0.00 in0.0 mm 0.00 in0.0 mm
10:36 AM 71.4°F21.9°C 63.0°F17.2°C 75% 9.6 mph NE15.4 kmh NE 11.2 mph18.0 kmh 28.93 in979.7 mb 0.00 in0.0 mm 0.00 in0.0 mm 0.00 in0.0 mm
10:35 AM 71.2°F21.8°C 62.9°F17.2°C 75% 6.0 mph NE9.7 kmh NE 11.2 mph18.0 kmh 28.93 in979.7 mb 0.00 in0.0 mm 0.00 in0.0 mm 0.00 in0.0 mm
10:34 AM 71.2°F21.8°C 62.9°F17.2°C 75% 5.8 mph NE9.3 kmh NE 11.2 mph18.0 kmh 28.93 in979.7 mb 0.00 in0.0 mm 0.00 in0.0 mm 0.00 in0.0 mm
10:33 AM 71.2°F21.8°C 62.9°F17.2°C 75% 6.9 mph NE11.1 kmh NE 11.2 mph18.0 kmh 28.93 in979.7 mb 0.00 in0.0 mm 0.00 in0.0 mm 0.00 in0.0 mm
10:32 AM 71.2°F21.8°C 62.9°F17.2°C 75% 9.2 mph NE14.8 kmh NE 11.2 mph18.0 kmh 28.93 in979.7 mb 0.00 in0.0 mm 0.00 in0.0 mm 0.00 in0.0 mm
10:31 AM 71.2°F21.8°C 62.9°F17.2°C 75% 4.5 mph NE7.2 kmh NE 11.2 mph18.0 kmh 28.93 in979.7 mb 0.00 in0.0 mm 0.00 in0.0 mm 0.00 in0.0 mm
10:30 AM 71.2°F21.8°C 62.9°F17.2°C 75% 5.6 mph NE9.0 kmh NE 11.2 mph18.0 kmh 28.93 in979.7 mb 0.00 in0.0 mm 0.00 in0.0 mm 0.00 in0.0 mm
10:29 AM 71.2°F21.8°C 62.9°F17.2°C 75% 6.7 mph NE10.8 kmh NE 11.2 mph18.0 kmh 28.93 in979.7 mb 0.00 in0.0 mm 0.00 in0.0 mm 0.00 in0.0 mm
10:28 AM 71.2°F21.8°C 62.9°F17.2°C 75% 6.3 mph NE10.1 kmh NE 11.2 mph18.0 kmh 28.93 in979.7 mb 0.00 in0.0 mm 0.00 in0.0 mm 0.00 in0.0 mm
10:27 AM 71.2°F21.8°C 62.9°F17.2°C 75% 7.2 mph NE11.6 kmh NE 11.0 mph17.7 kmh 28.93 in979.7 mb 0.00 in0.0 mm 0.00 in0.0 mm 0.00 in0.0 mm
10:26 AM 71.2°F21.8°C 62.9°F17.2°C 75% 8.3 mph NNE13.4 kmh NNE 13.2 mph21.2 kmh 28.93 in979.7 mb 0.00 in0.0 mm 0.00 in0.0 mm 0.00 in0.0 mm
10:25 AM 71.2°F21.8°C 62.9°F17.2°C 75% 4.0 mph NNE6.4 kmh NNE 13.2 mph21.2 kmh 28.93 in979.7 mb 0.00 in0.0 mm 0.00 in0.0 mm 0.00 in0.0 mm
10:24 AM 71.2°F21.8°C 62.9°F17.2°C 75% 4.0 mph NE6.4 kmh NE 13.2 mph21.2 kmh 28.93 in979.7 mb 0.00 in0.0 mm 0.00 in0.0 mm 0.00 in0.0 mm
10:23 AM 71.2°F21.8°C 62.9°F17.2°C 75% 7.4 mph NE11.9 kmh NE 13.2 mph21.2 kmh 28.93 in979.7 mb 0.00 in0.0 mm 0.00 in0.0 mm 0.00 in0.0 mm
10:22 AM 71.2°F21.8°C 62.9°F17.2°C 75% 8.9 mph NE14.3 kmh NE 13.2 mph21.2 kmh 28.93 in979.7 mb 0.00 in0.0 mm 0.00 in0.0 mm 0.00 in0.0 mm
10:21 AM 71.4°F21.9°C 63.0°F17.2°C 75% 2.5 mph NE4.0 kmh NE 13.2 mph21.2 kmh 28.93 in979.7 mb 0.00 in0.0 mm 0.00 in0.0 mm 0.00 in0.0 mm
10:20 AM 71.4°F21.9°C 63.0°F17.2°C 75% 4.0 mph NE6.4 kmh NE 13.2 mph21.2 kmh 28.93 in979.7 mb 0.00 in0.0 mm 0.00 in0.0 mm 0.00 in0.0 mm
10:19 AM 71.4°F21.9°C 63.0°F17.2°C 75% 8.9 mph NE14.3 kmh NE 13.2 mph21.2 kmh 28.93 in979.7 mb 0.00 in0.0 mm 0.00 in0.0 mm 0.00 in0.0 mm
10:18 AM 71.4°F21.9°C 63.0°F17.2°C 75% 4.5 mph NE7.2 kmh NE 13.2 mph21.2 kmh 28.93 in979.7 mb 0.00 in0.0 mm 0.00 in0.0 mm 0.00 in0.0 mm
10:17 AM 71.4°F21.9°C 63.0°F17.2°C 75% 7.2 mph NE11.6 kmh NE 13.2 mph21.2 kmh 28.93 in979.7 mb 0.00 in0.0 mm 0.00 in0.0 mm 0.00 in0.0 mm
10:16 AM 71.4°F21.9°C 63.0°F17.2°C 75% 4.0 mph NE6.4 kmh NE 11.0 mph17.7 kmh 28.93 in979.7 mb 0.00 in0.0 mm 0.00 in0.0 mm 0.00 in0.0 mm
10:15 AM 71.4°F21.9°C 63.0°F17.2°C 75% 8.1 mph NE13.0 kmh NE 11.0 mph17.7 kmh 28.93 in979.7 mb 0.00 in0.0 mm 0.00 in0.0 mm 0.00 in0.0 mm
10:14 AM 71.4°F21.9°C 63.0°F17.2°C 75% 10.3 mph NE16.6 kmh NE 11.0 mph17.7 kmh 28.93 in979.7 mb 0.00 in0.0 mm 0.00 in0.0 mm 0.00 in0.0 mm
10:13 AM 71.4°F21.9°C 63.0°F17.2°C 75% 6.0 mph NE9.7 kmh NE 11.0 mph17.7 kmh 28.93 in979.7 mb 0.00 in0.0 mm 0.00 in0.0 mm 0.00 in0.0 mm
10:12 AM 71.4°F21.9°C 63.0°F17.2°C 75% 8.1 mph NE13.0 kmh NE 11.0 mph17.7 kmh 28.93 in979.7 mb 0.00 in0.0 mm 0.00 in0.0 mm 0.00 in0.0 mm
10:11 AM 71.4°F21.9°C 63.0°F17.2°C 75% 9.6 mph NE15.4 kmh NE 11.0 mph17.7 kmh 28.93 in979.7 mb 0.00 in0.0 mm 0.00 in0.0 mm 0.00 in0.0 mm
10:10 AM 71.4°F21.9°C 63.0°F17.2°C 75% 6.3 mph NE10.1 kmh NE 22.1 mph35.6 kmh 28.93 in979.7 mb 0.00 in0.0 mm 0.00 in0.0 mm 0.00 in0.0 mm
10:09 AM 71.4°F21.9°C 63.0°F17.2°C 75% 6.7 mph NE10.8 kmh NE 22.1 mph35.6 kmh 28.93 in979.7 mb 0.00 in0.0 mm 0.00 in0.0 mm 0.00 in0.0 mm
10:08 AM 71.4°F21.9°C 63.0°F17.2°C 75% 5.8 mph NE9.3 kmh NE 22.1 mph35.6 kmh 28.93 in979.7 mb 0.00 in0.0 mm 0.00 in0.0 mm 0.00 in0.0 mm
10:07 AM 71.4°F21.9°C 63.0°F17.2°C 75% 5.4 mph NE8.7 kmh NE 22.1 mph35.6 kmh 28.93 in979.7 mb 0.00 in0.0 mm 0.00 in0.0 mm 0.00 in0.0 mm
10:06 AM 71.4°F21.9°C 63.0°F17.2°C 75% 8.3 mph NE13.4 kmh NE 22.1 mph35.6 kmh 28.93 in979.7 mb 0.00 in0.0 mm 0.00 in0.0 mm 0.00 in0.0 mm
10:05 AM 71.4°F21.9°C 63.0°F17.2°C 75% 8.1 mph NE13.0 kmh NE 22.1 mph35.6 kmh 28.93 in979.7 mb 0.00 in0.0 mm 0.00 in0.0 mm 0.00 in0.0 mm
10:04 AM 71.4°F21.9°C 63.0°F17.2°C 75% 7.4 mph NE11.9 kmh NE 22.1 mph35.6 kmh 28.93 in979.7 mb 0.00 in0.0 mm 0.00 in0.0 mm 0.00 in0.0 mm
10:03 AM 71.4°F21.9°C 63.0°F17.2°C 75% 4.0 mph NE6.4 kmh NE 22.1 mph35.6 kmh 28.93 in979.7 mb 0.00 in0.0 mm 0.00 in0.0 mm 0.00 in0.0 mm
10:02 AM 71.2°F21.8°C 62.9°F17.2°C 75% 5.1 mph NE8.2 kmh NE 22.1 mph35.6 kmh 28.93 in979.7 mb 0.00 in0.0 mm 0.00 in0.0 mm 0.00 in0.0 mm
10:01 AM 71.4°F21.9°C 63.4°F17.4°C 76% 6.7 mph NE10.8 kmh NE 22.1 mph35.6 kmh 28.93 in979.7 mb 0.00 in0.0 mm 0.00 in0.0 mm 0.00 in0.0 mm
10:00 AM 71.2°F21.8°C 63.2°F17.3°C 76% 7.2 mph NE11.6 kmh NE 14.1 mph22.7 kmh 28.93 in979.7 mb 0.00 in0.0 mm 0.00 in0.0 mm 0.00 in0.0 mm
09:59 AM 71.2°F21.8°C 63.2°F17.3°C 76% 4.7 mph NE7.6 kmh NE 14.1 mph22.7 kmh 28.92 in979.3 mb 0.00 in0.0 mm 0.00 in0.0 mm 0.00 in0.0 mm
09:58 AM 71.2°F21.8°C 63.2°F17.3°C 76% 4.7 mph NE7.6 kmh NE 14.1 mph22.7 kmh 28.93 in979.7 mb 0.00 in0.0 mm 0.00 in0.0 mm 0.00 in0.0 mm
09:57 AM 71.2°F21.8°C 63.2°F17.3°C 76% 5.6 mph NE9.0 kmh NE 14.1 mph22.7 kmh 28.93 in979.7 mb 0.00 in0.0 mm 0.00 in0.0 mm 0.00 in0.0 mm
09:56 AM 71.2°F21.8°C 63.2°F17.3°C 76% 7.4 mph NE11.9 kmh NE 14.1 mph22.7 kmh 28.92 in979.3 mb 0.00 in0.0 mm 0.00 in0.0 mm 0.00 in0.0 mm
09:55 AM 71.2°F21.8°C 63.2°F17.3°C 76% 6.3 mph NE10.1 kmh NE 14.1 mph22.7 kmh 28.92 in979.3 mb 0.00 in0.0 mm 0.00 in0.0 mm 0.00 in0.0 mm
09:54 AM 71.2°F21.8°C 63.2°F17.3°C 76% 3.1 mph NE5.0 kmh NE 14.1 mph22.7 kmh 28.92 in979.3 mb 0.00 in0.0 mm 0.00 in0.0 mm 0.00 in0.0 mm
09:53 AM 71.2°F21.8°C 62.9°F17.2°C 75% 6.9 mph NE11.1 kmh NE 14.3 mph23.0 kmh 28.92 in979.3 mb 0.00 in0.0 mm 0.00 in0.0 mm 0.00 in0.0 mm
09:52 AM 71.2°F21.8°C 62.9°F17.2°C 75% 6.7 mph NE10.8 kmh NE 14.3 mph23.0 kmh 28.92 in979.3 mb 0.00 in0.0 mm 0.00 in0.0 mm 0.00 in0.0 mm
09:51 AM 71.2°F21.8°C 62.9°F17.2°C 75% 5.4 mph NE8.7 kmh NE 14.3 mph23.0 kmh 28.92 in979.3 mb 0.00 in0.0 mm 0.00 in0.0 mm 0.00 in0.0 mm
09:50 AM 71.2°F21.8°C 62.9°F17.2°C 75% 5.4 mph NE8.7 kmh NE 14.3 mph23.0 kmh 28.92 in979.3 mb 0.00 in0.0 mm 0.00 in0.0 mm 0.00 in0.0 mm
09:49 AM 71.2°F21.8°C 62.9°F17.2°C 75% 4.7 mph NE7.6 kmh NE 14.3 mph23.0 kmh 28.92 in979.3 mb 0.00 in0.0 mm 0.00 in0.0 mm 0.00 in0.0 mm
09:48 AM 71.2°F21.8°C 62.9°F17.2°C 75% 4.0 mph NE6.4 kmh NE 14.3 mph23.0 kmh 28.92 in979.3 mb 0.00 in0.0 mm 0.00 in0.0 mm 0.00 in0.0 mm
09:47 AM 71.2°F21.8°C 62.9°F17.2°C 75% 7.2 mph NE11.6 kmh NE 14.3 mph23.0 kmh 28.92 in979.3 mb 0.00 in0.0 mm 0.00 in0.0 mm 0.00 in0.0 mm
09:46 AM 71.2°F21.8°C 62.9°F17.2°C 75% 4.3 mph NE6.9 kmh NE 14.3 mph23.0 kmh 28.92 in979.3 mb 0.00 in0.0 mm 0.00 in0.0 mm 0.00 in0.0 mm
09:45 AM 71.2°F21.8°C 62.9°F17.2°C 75% 7.6 mph NE12.2 kmh NE 14.3 mph23.0 kmh 28.92 in979.3 mb 0.00 in0.0 mm 0.00 in0.0 mm 0.00 in0.0 mm
09:44 AM 71.2°F21.8°C 62.9°F17.2°C 75% 7.8 mph NE12.6 kmh NE 14.3 mph23.0 kmh 28.92 in979.3 mb 0.00 in0.0 mm 0.00 in0.0 mm 0.00 in0.0 mm
09:43 AM 71.2°F21.8°C 62.9°F17.2°C 75% 2.9 mph NE4.7 kmh NE 12.1 mph19.5 kmh 28.92 in979.3 mb 0.00 in0.0 mm 0.00 in0.0 mm 0.00 in0.0 mm
09:42 AM 71.2°F21.8°C 62.9°F17.2°C 75% 4.7 mph NE7.6 kmh NE 12.1 mph19.5 kmh 28.92 in979.3 mb 0.00 in0.0 mm 0.00 in0.0 mm 0.00 in0.0 mm
09:41 AM 71.2°F21.8°C 62.9°F17.2°C 75% 4.0 mph NE6.4 kmh NE 12.1 mph19.5 kmh 28.92 in979.3 mb 0.00 in0.0 mm 0.00 in0.0 mm 0.00 in0.0 mm
09:40 AM 71.2°F21.8°C 62.9°F17.2°C 75% 4.7 mph NE7.6 kmh NE 22.1 mph35.6 kmh 28.92 in979.3 mb 0.00 in0.0 mm 0.00 in0.0 mm 0.00 in0.0 mm
09:39 AM 71.2°F21.8°C 62.9°F17.2°C 75% 3.1 mph NE5.0 kmh NE 22.1 mph35.6 kmh 28.92 in979.3 mb 0.00 in0.0 mm 0.00 in0.0 mm 0.00 in0.0 mm
09:38 AM 71.2°F21.8°C 62.9°F17.2°C 75% 5.8 mph NE9.3 kmh NE 22.1 mph35.6 kmh 28.92 in979.3 mb 0.00 in0.0 mm 0.00 in0.0 mm 0.00 in0.0 mm
09:37 AM 71.2°F21.8°C 62.9°F17.2°C 75% 1.6 mph NE2.6 kmh NE 22.1 mph35.6 kmh 28.92 in979.3 mb 0.00 in0.0 mm 0.00 in0.0 mm 0.00 in0.0 mm
09:36 AM 71.2°F21.8°C 62.9°F17.2°C 76% 4.7 mph NE7.6 kmh NE 22.1 mph35.6 kmh 28.92 in979.3 mb 0.00 in0.0 mm 0.00 in0.0 mm 0.00 in0.0 mm
09:35 AM 71.2°F21.8°C 62.9°F17.2°C 75% 3.6 mph NE5.8 kmh NE 22.1 mph35.6 kmh 28.92 in979.3 mb 0.00 in0.0 mm 0.00 in0.0 mm 0.00 in0.0 mm
09:34 AM 71.2°F21.8°C 62.9°F17.2°C 75% 5.6 mph NE9.0 kmh NE 22.1 mph35.6 kmh 28.91 in979.0 mb 0.00 in0.0 mm 0.00 in0.0 mm 0.00 in0.0 mm
09:33 AM 71.2°F21.8°C 62.9°F17.2°C 75% 3.6 mph NE5.8 kmh NE 22.1 mph35.6 kmh 28.92 in979.3 mb 0.00 in0.0 mm 0.00 in0.0 mm 0.00 in0.0 mm
09:32 AM 71.2°F21.8°C 63.2°F17.3°C 76% 7.6 mph NE12.2 kmh NE 22.1 mph35.6 kmh 28.92 in979.3 mb 0.00 in0.0 mm 0.00 in0.0 mm 0.00 in0.0 mm
09:31 AM 71.2°F21.8°C 63.2°F17.3°C 76% 9.6 mph NE15.4 kmh NE 22.1 mph35.6 kmh 28.92 in979.3 mb 0.00 in0.0 mm 0.00 in0.0 mm 0.00 in0.0 mm
09:30 AM 71.2°F21.8°C 63.2°F17.3°C 76% 6.5 mph NE10.5 kmh NE 10.7 mph17.2 kmh 28.92 in979.3 mb 0.00 in0.0 mm 0.00 in0.0 mm 0.00 in0.0 mm
09:29 AM 71.2°F21.8°C 63.2°F17.3°C 76% 3.8 mph NE6.1 kmh NE 10.7 mph17.2 kmh 28.92 in979.3 mb 0.00 in0.0 mm 0.00 in0.0 mm 0.00 in0.0 mm
09:28 AM 71.2°F21.8°C 62.9°F17.2°C 75% 6.0 mph NE9.7 kmh NE 10.7 mph17.2 kmh 28.91 in979.0 mb 0.00 in0.0 mm 0.00 in0.0 mm 0.00 in0.0 mm
09:27 AM 71.2°F21.8°C 62.9°F17.2°C 75% 6.0 mph NE9.7 kmh NE 10.7 mph17.2 kmh 28.91 in979.0 mb 0.00 in0.0 mm 0.00 in0.0 mm 0.00 in0.0 mm
09:26 AM 71.2°F21.8°C 62.9°F17.2°C 75% 5.6 mph NE9.0 kmh NE 10.7 mph17.2 kmh 28.92 in979.3 mb 0.00 in0.0 mm 0.00 in0.0 mm 0.00 in0.0 mm
09:25 AM 71.2°F21.8°C 62.9°F17.2°C 75% 5.1 mph NE8.2 kmh NE 12.1 mph19.5 kmh 28.91 in979.0 mb 0.00 in0.0 mm 0.00 in0.0 mm 0.00 in0.0 mm
09:24 AM 71.2°F21.8°C 63.2°F17.3°C 76% 4.0 mph NE6.4 kmh NE 12.1 mph19.5 kmh 28.92 in979.3 mb 0.00 in0.0 mm 0.00 in0.0 mm 0.00 in0.0 mm
09:23 AM 71.2°F21.8°C 62.9°F17.2°C 75% 7.8 mph NE12.6 kmh NE 12.1 mph19.5 kmh 28.91 in979.0 mb 0.00 in0.0 mm 0.00 in0.0 mm 0.00 in0.0 mm
09:22 AM 71.2°F21.8°C 62.9°F17.2°C 75% 5.1 mph NE8.2 kmh NE 12.1 mph19.5 kmh 28.91 in979.0 mb 0.00 in0.0 mm 0.00 in0.0 mm 0.00 in0.0 mm
09:21 AM 71.2°F21.8°C 62.9°F17.2°C 75% 6.0 mph NE9.7 kmh NE 12.1 mph19.5 kmh 28.91 in979.0 mb 0.00 in0.0 mm 0.00 in0.0 mm 0.00 in0.0 mm
09:20 AM 71.2°F21.8°C 62.9°F17.2°C 75% 6.7 mph NE10.8 kmh NE 12.1 mph19.5 kmh 28.91 in979.0 mb 0.00 in0.0 mm 0.00 in0.0 mm 0.00 in0.0 mm
09:19 AM 71.2°F21.8°C 62.9°F17.2°C 75% 5.1 mph NE8.2 kmh NE 13.0 mph20.9 kmh 28.91 in979.0 mb 0.00 in0.0 mm 0.00 in0.0 mm 0.00 in0.0 mm
09:18 AM 71.2°F21.8°C 62.9°F17.2°C 75% 7.8 mph NE12.6 kmh NE 13.0 mph20.9 kmh 28.91 in979.0 mb 0.00 in0.0 mm 0.00 in0.0 mm 0.00 in0.0 mm
09:17 AM 71.2°F21.8°C 62.9°F17.2°C 75% 9.8 mph NE15.8 kmh NE 13.0 mph20.9 kmh 28.91 in979.0 mb 0.00 in0.0 mm 0.00 in0.0 mm 0.00 in0.0 mm
09:16 AM 71.2°F21.8°C 62.9°F17.2°C 75% 9.6 mph NE15.4 kmh NE 13.0 mph20.9 kmh 28.91 in979.0 mb 0.00 in0.0 mm 0.00 in0.0 mm 0.00 in0.0 mm
09:15 AM 71.2°F21.8°C 62.9°F17.2°C 75% 10.1 mph NE16.3 kmh NE 13.0 mph20.9 kmh 28.91 in979.0 mb 0.00 in0.0 mm 0.00 in0.0 mm 0.00 in0.0 mm
09:14 AM 71.2°F21.8°C 62.9°F17.2°C 75% 7.2 mph NE11.6 kmh NE 13.0 mph20.9 kmh 28.91 in979.0 mb 0.00 in0.0 mm 0.00 in0.0 mm 0.00 in0.0 mm
09:13 AM 71.2°F21.8°C 63.2°F17.3°C 76% 11.6 mph NE18.7 kmh NE 13.0 mph20.9 kmh 28.91 in979.0 mb 0.00 in0.0 mm 0.00 in0.0 mm 0.00 in0.0 mm
09:12 AM 71.2°F21.8°C 63.2°F17.3°C 76% 6.0 mph NE9.7 kmh NE 14.1 mph22.7 kmh 28.91 in979.0 mb 0.00 in0.0 mm 0.00 in0.0 mm 0.00 in0.0 mm
09:11 AM 71.2°F21.8°C 63.2°F17.3°C 76% 9.6 mph NE15.4 kmh NE 14.1 mph22.7 kmh 28.91 in979.0 mb 0.00 in0.0 mm 0.00 in0.0 mm 0.00 in0.0 mm
09:10 AM 71.2°F21.8°C 63.2°F17.3°C 76% 11.2 mph NE18.0 kmh NE 14.1 mph22.7 kmh 28.91 in979.0 mb 0.00 in0.0 mm 0.00 in0.0 mm 0.00 in0.0 mm
09:09 AM 71.2°F21.8°C 63.2°F17.3°C 76% 3.6 mph NE5.8 kmh NE 14.1 mph22.7 kmh 28.91 in979.0 mb 0.00 in0.0 mm 0.00 in0.0 mm 0.00 in0.0 mm
09:08 AM 71.2°F21.8°C 63.2°F17.3°C 76% 12.3 mph NE19.8 kmh NE 14.1 mph22.7 kmh 28.91 in979.0 mb 0.00 in0.0 mm 0.00 in0.0 mm 0.00 in0.0 mm
09:07 AM 71.2°F21.8°C 63.2°F17.3°C 76% 7.2 mph NE11.6 kmh NE 14.1 mph22.7 kmh 28.91 in979.0 mb 0.00 in0.0 mm 0.00 in0.0 mm 0.00 in0.0 mm
09:06 AM 71.2°F21.8°C 63.2°F17.3°C 76% 10.1 mph NE16.3 kmh NE 14.1 mph22.7 kmh 28.91 in979.0 mb 0.00 in0.0 mm 0.00 in0.0 mm 0.00 in0.0 mm
09:05 AM 71.2°F21.8°C 63.2°F17.3°C 76% 8.3 mph NE13.4 kmh NE 14.1 mph22.7 kmh 28.91 in979.0 mb 0.00 in0.0 mm 0.00 in0.0 mm 0.00 in0.0 mm
09:04 AM 71.2°F21.8°C 63.2°F17.3°C 76% 8.1 mph NE13.0 kmh NE 14.1 mph22.7 kmh 28.90 in978.7 mb 0.00 in0.0 mm 0.00 in0.0 mm 0.00 in0.0 mm
09:03 AM 71.2°F21.8°C 63.2°F17.3°C 76% 2.2 mph NE3.5 kmh NE 14.1 mph22.7 kmh 28.90 in978.7 mb 0.00 in0.0 mm 0.00 in0.0 mm 0.00 in0.0 mm
09:02 AM 71.2°F21.8°C 63.2°F17.3°C 76% 3.1 mph NE5.0 kmh NE 12.5 mph20.1 kmh 28.90 in978.7 mb 0.00 in0.0 mm 0.00 in0.0 mm 0.00 in0.0 mm
09:01 AM 71.2°F21.8°C 63.2°F17.3°C 76% 3.4 mph NE5.5 kmh NE 12.5 mph20.1 kmh 28.91 in979.0 mb 0.00 in0.0 mm 0.00 in0.0 mm 0.00 in0.0 mm
09:00 AM 71.4°F21.9°C 63.4°F17.4°C 76% 3.6 mph NE5.8 kmh NE 12.5 mph20.1 kmh 28.90 in978.7 mb 0.00 in0.0 mm 0.00 in0.0 mm 0.00 in0.0 mm
08:59 AM 71.4°F21.9°C 63.4°F17.4°C 76% 4.0 mph NE6.4 kmh NE 12.5 mph20.1 kmh 28.90 in978.7 mb 0.00 in0.0 mm 0.00 in0.0 mm 0.00 in0.0 mm
08:58 AM 71.4°F21.9°C 63.4°F17.4°C 76% 9.2 mph NE14.8 kmh NE 12.5 mph20.1 kmh 28.90 in978.7 mb 0.00 in0.0 mm 0.00 in0.0 mm 0.00 in0.0 mm
08:57 AM 71.4°F21.9°C 63.4°F17.4°C 76% 5.6 mph ENE9.0 kmh ENE 12.5 mph20.1 kmh 28.90 in978.7 mb 0.00 in0.0 mm 0.00 in0.0 mm 0.00 in0.0 mm
08:56 AM 71.4°F21.9°C 63.4°F17.4°C 76% 7.4 mph ENE11.9 kmh ENE 12.5 mph20.1 kmh 28.90 in978.7 mb 0.00 in0.0 mm 0.00 in0.0 mm 0.00 in0.0 mm
08:55 AM 71.4°F21.9°C 63.0°F17.2°C 75% 12.5 mph E20.1 kmh E 12.5 mph20.1 kmh 28.90 in978.7 mb 0.00 in0.0 mm 0.00 in0.0 mm 0.00 in0.0 mm
08:54 AM 71.4°F21.9°C 63.0°F17.2°C 75% 4.3 mph E6.9 kmh E 11.4 mph18.3 kmh 28.90 in978.7 mb 0.00 in0.0 mm 0.00 in0.0 mm 0.00 in0.0 mm
08:53 AM 71.4°F21.9°C 63.0°F17.2°C 75% 1.3 mph E2.1 kmh E 11.4 mph18.3 kmh 28.90 in978.7 mb 0.00 in0.0 mm 0.00 in0.0 mm 0.00 in0.0 mm
08:52 AM 71.4°F21.9°C 63.0°F17.2°C 75% 4.5 mph E7.2 kmh E 11.4 mph18.3 kmh 28.90 in978.7 mb 0.00 in0.0 mm 0.00 in0.0 mm 0.00 in0.0 mm
08:51 AM 71.4°F21.9°C 63.0°F17.2°C 75% 7.6 mph E12.2 kmh E 11.9 mph19.2 kmh 28.90 in978.7 mb 0.00 in0.0 mm 0.00 in0.0 mm 0.00 in0.0 mm
08:50 AM 71.4°F21.9°C 63.0°F17.2°C 75% 4.5 mph E7.2 kmh E 11.9 mph19.2 kmh 28.90 in978.7 mb 0.00 in0.0 mm 0.00 in0.0 mm 0.00 in0.0 mm
08:49 AM 71.4°F21.9°C 63.0°F17.2°C 75% 5.1 mph E8.2 kmh E 11.9 mph19.2 kmh 28.90 in978.7 mb 0.00 in0.0 mm 0.00 in0.0 mm 0.00 in0.0 mm
08:48 AM 71.4°F21.9°C 63.0°F17.2°C 75% 5.4 mph E8.7 kmh E 11.9 mph19.2 kmh 28.90 in978.7 mb 0.00 in0.0 mm 0.00 in0.0 mm 0.00 in0.0 mm
08:47 AM 71.4°F21.9°C 63.0°F17.2°C 75% 7.6 mph E12.2 kmh E 11.9 mph19.2 kmh 28.89 in978.3 mb 0.00 in0.0 mm 0.00 in0.0 mm 0.00 in0.0 mm
08:46 AM 71.4°F21.9°C 63.0°F17.2°C 75% 4.7 mph ENE7.6 kmh ENE 11.9 mph19.2 kmh 28.89 in978.3 mb 0.00 in0.0 mm 0.00 in0.0 mm 0.00 in0.0 mm
08:45 AM 71.4°F21.9°C 63.0°F17.2°C 75% 8.1 mph ENE13.0 kmh ENE 11.9 mph19.2 kmh 28.89 in978.3 mb 0.00 in0.0 mm 0.00 in0.0 mm 0.00 in0.0 mm
08:44 AM 71.4°F21.9°C 63.0°F17.2°C 75% 6.9 mph ENE11.1 kmh ENE 11.9 mph19.2 kmh 28.89 in978.3 mb 0.00 in0.0 mm 0.00 in0.0 mm 0.00 in0.0 mm
08:43 AM 71.4°F21.9°C 63.0°F17.2°C 75% 8.7 mph ENE14.0 kmh ENE 12.1 mph19.5 kmh 28.89 in978.3 mb 0.00 in0.0 mm 0.00 in0.0 mm 0.00 in0.0 mm
08:42 AM 71.4°F21.9°C 63.0°F17.2°C 75% 8.5 mph NE13.7 kmh NE 12.1 mph19.5 kmh 28.90 in978.7 mb 0.00 in0.0 mm 0.00 in0.0 mm 0.00 in0.0 mm
08:41 AM 71.4°F21.9°C 63.0°F17.2°C 75% 11.9 mph NE19.2 kmh NE 12.1 mph19.5 kmh 28.89 in978.3 mb 0.00 in0.0 mm 0.00 in0.0 mm 0.00 in0.0 mm
08:40 AM 71.4°F21.9°C 63.0°F17.2°C 75% 6.9 mph NE11.1 kmh NE 12.1 mph19.5 kmh 28.89 in978.3 mb 0.00 in0.0 mm 0.00 in0.0 mm 0.00 in0.0 mm
08:39 AM 71.4°F21.9°C 63.0°F17.2°C 75% 8.1 mph NE13.0 kmh NE 12.1 mph19.5 kmh 28.90 in978.7 mb 0.00 in0.0 mm 0.00 in0.0 mm 0.00 in0.0 mm
08:38 AM 71.4°F21.9°C 63.0°F17.2°C 75% 8.5 mph NE13.7 kmh NE 12.1 mph19.5 kmh 28.90 in978.7 mb 0.00 in0.0 mm 0.00 in0.0 mm 0.00 in0.0 mm
08:37 AM 71.4°F21.9°C 63.0°F17.2°C 75% Calm Calm 12.1 mph19.5 kmh 28.90 in978.7 mb 0.00 in0.0 mm 0.00 in0.0 mm 0.00 in0.0 mm
08:36 AM 71.4°F21.9°C 63.0°F17.2°C 75% 8.7 mph NE14.0 kmh NE 12.5 mph20.1 kmh 28.90 in978.7 mb 0.00 in0.0 mm 0.00 in0.0 mm 0.00 in0.0 mm
08:35 AM 71.6°F22.0°C 63.2°F17.3°C 75% 11.6 mph NE18.7 kmh NE 12.5 mph20.1 kmh 28.90 in978.7 mb 0.00 in0.0 mm 0.00 in0.0 mm 0.00 in0.0 mm
08:34 AM 71.6°F22.0°C 63.2°F17.3°C 75% 10.1 mph NE16.3 kmh NE 12.5 mph20.1 kmh 28.90 in978.7 mb 0.00 in0.0 mm 0.00 in0.0 mm 0.00 in0.0 mm
08:33 AM 71.6°F22.0°C 63.2°F17.3°C 75% 9.4 mph NE15.1 kmh NE 12.5 mph20.1 kmh 28.90 in978.7 mb 0.00 in0.0 mm 0.00 in0.0 mm 0.00 in0.0 mm
08:32 AM 71.8°F22.1°C 63.4°F17.4°C 75% 6.3 mph NE10.1 kmh NE 12.5 mph20.1 kmh 28.90 in978.7 mb 0.00 in0.0 mm 0.00 in0.0 mm 0.00 in0.0 mm
08:31 AM 71.6°F22.0°C 63.2°F17.3°C 75% 4.3 mph NE6.9 kmh NE 12.5 mph20.1 kmh 28.90 in978.7 mb 0.00 in0.0 mm 0.00 in0.0 mm 0.00 in0.0 mm
08:30 AM 71.8°F22.1°C 63.4°F17.4°C 75% 5.1 mph NE8.2 kmh NE 12.5 mph20.1 kmh 28.89 in978.3 mb 0.00 in0.0 mm 0.00 in0.0 mm 0.00 in0.0 mm
08:29 AM 71.8°F22.1°C 63.4°F17.4°C 75% 5.6 mph NE9.0 kmh NE 12.5 mph20.1 kmh 28.90 in978.7 mb 0.00 in0.0 mm 0.00 in0.0 mm 0.00 in0.0 mm
08:28 AM 71.8°F22.1°C 63.4°F17.4°C 75% 5.4 mph NE8.7 kmh NE 12.5 mph20.1 kmh 28.89 in978.3 mb 0.00 in0.0 mm 0.00 in0.0 mm 0.00 in0.0 mm
08:27 AM 71.8°F22.1°C 63.4°F17.4°C 75% 9.6 mph NE15.4 kmh NE 12.5 mph20.1 kmh 28.90 in978.7 mb 0.00 in0.0 mm 0.00 in0.0 mm 0.00 in0.0 mm
08:26 AM 71.8°F22.1°C 63.4°F17.4°C 75% 6.9 mph NE11.1 kmh NE 12.1 mph19.5 kmh 28.90 in978.7 mb 0.00 in0.0 mm 0.00 in0.0 mm 0.00 in0.0 mm
08:25 AM 71.8°F22.1°C 63.4°F17.4°C 75% 4.0 mph NE6.4 kmh NE 12.1 mph19.5 kmh 28.89 in978.3 mb 0.00 in0.0 mm 0.00 in0.0 mm 0.00 in0.0 mm
08:24 AM 71.8°F22.1°C 63.4°F17.4°C 75% 10.3 mph NE16.6 kmh NE 12.1 mph19.5 kmh 28.89 in978.3 mb 0.00 in0.0 mm 0.00 in0.0 mm 0.00 in0.0 mm
08:23 AM 71.8°F22.1°C 63.4°F17.4°C 75% 6.3 mph NE10.1 kmh NE 12.1 mph19.5 kmh 28.89 in978.3 mb 0.00 in0.0 mm 0.00 in0.0 mm 0.00 in0.0 mm
08:22 AM 71.8°F22.1°C 63.4°F17.4°C 75% 7.6 mph NE12.2 kmh NE 12.1 mph19.5 kmh 28.89 in978.3 mb 0.00 in0.0 mm 0.00 in0.0 mm 0.00 in0.0 mm
08:21 AM 71.8°F22.1°C 63.4°F17.4°C 75% 10.3 mph ENE16.6 kmh ENE 12.1 mph19.5 kmh 28.89 in978.3 mb 0.00 in0.0 mm 0.00 in0.0 mm 0.00 in0.0 mm
08:20 AM 71.8°F22.1°C 63.4°F17.4°C 75% 8.7 mph ENE14.0 kmh ENE 12.1 mph19.5 kmh 28.89 in978.3 mb 0.00 in0.0 mm 0.00 in0.0 mm 0.00 in0.0 mm
08:19 AM 71.8°F22.1°C 63.4°F17.4°C 75% 6.0 mph ENE9.7 kmh ENE 9.4 mph15.1 kmh 28.89 in978.3 mb 0.00 in0.0 mm 0.00 in0.0 mm 0.00 in0.0 mm
08:18 AM 71.8°F22.1°C 63.4°F17.4°C 75% 6.0 mph ENE9.7 kmh ENE 9.4 mph15.1 kmh 28.89 in978.3 mb 0.00 in0.0 mm 0.00 in0.0 mm 0.00 in0.0 mm
08:17 AM 71.8°F22.1°C 63.4°F17.4°C 75% 5.1 mph ENE8.2 kmh ENE 7.6 mph12.2 kmh 28.89 in978.3 mb 0.00 in0.0 mm 0.00 in0.0 mm 0.00 in0.0 mm
08:16 AM 71.8°F22.1°C 63.4°F17.4°C 75% 2.2 mph ENE3.5 kmh ENE 7.2 mph11.6 kmh 28.89 in978.3 mb 0.00 in0.0 mm 0.00 in0.0 mm 0.00 in0.0 mm
08:15 AM 71.8°F22.1°C 63.4°F17.4°C 75% 4.3 mph ENE6.9 kmh ENE 7.2 mph11.6 kmh 28.89 in978.3 mb 0.00 in0.0 mm 0.00 in0.0 mm 0.00 in0.0 mm
08:14 AM 71.8°F22.1°C 63.4°F17.4°C 75% 4.7 mph ENE7.6 kmh ENE 7.2 mph11.6 kmh 28.89 in978.3 mb 0.00 in0.0 mm 0.00 in0.0 mm 0.00 in0.0 mm
08:13 AM 71.8°F22.1°C 63.4°F17.4°C 75% 2.0 mph ENE3.2 kmh ENE 6.3 mph10.1 kmh 28.89 in978.3 mb 0.00 in0.0 mm 0.00 in0.0 mm 0.00 in0.0 mm
08:12 AM 71.8°F22.1°C 63.4°F17.4°C 75% 1.8 mph ENE2.9 kmh ENE 6.3 mph10.1 kmh 28.89 in978.3 mb 0.00 in0.0 mm 0.00 in0.0 mm 0.00 in0.0 mm
08:11 AM 71.8°F22.1°C 63.4°F17.4°C 75% 3.1 mph ENE5.0 kmh ENE 6.3 mph10.1 kmh 28.89 in978.3 mb 0.00 in0.0 mm 0.00 in0.0 mm 0.00 in0.0 mm
08:10 AM 71.8°F22.1°C 63.4°F17.4°C 75% 2.0 mph ENE3.2 kmh ENE 6.3 mph10.1 kmh 28.89 in978.3 mb 0.00 in0.0 mm 0.00 in0.0 mm 0.00 in0.0 mm
08:09 AM 71.8°F22.1°C 63.4°F17.4°C 75% 2.9 mph ENE4.7 kmh ENE 6.3 mph10.1 kmh 28.89 in978.3 mb 0.00 in0.0 mm 0.00 in0.0 mm 0.00 in0.0 mm
08:08 AM 71.8°F22.1°C 63.4°F17.4°C 75% 2.2 mph ENE3.5 kmh ENE 6.3 mph10.1 kmh 28.89 in978.3 mb 0.00 in0.0 mm 0.00 in0.0 mm 0.00 in0.0 mm
08:07 AM 71.8°F22.1°C 63.4°F17.4°C 75% Calm Calm 6.3 mph10.1 kmh 28.89 in978.3 mb 0.00 in0.0 mm 0.00 in0.0 mm 0.00 in0.0 mm
08:06 AM 71.8°F22.1°C 63.4°F17.4°C 75% 2.7 mph ENE4.3 kmh ENE 6.3 mph10.1 kmh 28.89 in978.3 mb 0.00 in0.0 mm 0.00 in0.0 mm 0.00 in0.0 mm
08:05 AM 71.8°F22.1°C 63.4°F17.4°C 75% Calm Calm 6.3 mph10.1 kmh 28.89 in978.3 mb 0.00 in0.0 mm 0.00 in0.0 mm 0.00 in0.0 mm
08:04 AM 71.8°F22.1°C 63.4°F17.4°C 75% 2.5 mph ENE4.0 kmh ENE 6.3 mph10.1 kmh 28.89 in978.3 mb 0.00 in0.0 mm 0.00 in0.0 mm 0.00 in0.0 mm
08:03 AM 71.8°F22.1°C 63.4°F17.4°C 75% 0.9 mph ENE1.4 kmh ENE 6.3 mph10.1 kmh 28.89 in978.3 mb 0.00 in0.0 mm 0.00 in0.0 mm 0.00 in0.0 mm
08:02 AM 71.8°F22.1°C 63.4°F17.4°C 75% 3.8 mph ENE6.1 kmh ENE 6.3 mph10.1 kmh 28.89 in978.3 mb 0.00 in0.0 mm 0.00 in0.0 mm 0.00 in0.0 mm
08:01 AM 71.8°F22.1°C 63.4°F17.4°C 75% 4.7 mph ENE7.6 kmh ENE 6.3 mph10.1 kmh 28.89 in978.3 mb 0.00 in0.0 mm 0.00 in0.0 mm 0.00 in0.0 mm
08:00 AM 71.8°F22.1°C 63.4°F17.4°C 75% 5.4 mph ENE8.7 kmh ENE 6.3 mph10.1 kmh 28.89 in978.3 mb 0.00 in0.0 mm 0.00 in0.0 mm 0.00 in0.0 mm
07:59 AM 71.8°F22.1°C 63.4°F17.4°C 75% 4.0 mph ENE6.4 kmh ENE 5.6 mph9.0 kmh 28.89 in978.3 mb 0.00 in0.0 mm 0.00 in0.0 mm 0.00 in0.0 mm
07:58 AM 71.8°F22.1°C 63.4°F17.4°C 75% 4.7 mph ENE7.6 kmh ENE 4.9 mph7.9 kmh 28.89 in978.3 mb 0.00 in0.0 mm 0.00 in0.0 mm 0.00 in0.0 mm
07:57 AM 71.8°F22.1°C 63.4°F17.4°C 75% 2.9 mph ENE4.7 kmh ENE 4.3 mph6.9 kmh 28.89 in978.3 mb 0.00 in0.0 mm 0.00 in0.0 mm 0.00 in0.0 mm
07:56 AM 71.8°F22.1°C 63.4°F17.4°C 75% Calm Calm 4.3 mph6.9 kmh 28.89 in978.3 mb 0.00 in0.0 mm 0.00 in0.0 mm 0.00 in0.0 mm
07:55 AM 71.8°F22.1°C 63.4°F17.4°C 75% 2.9 mph ENE4.7 kmh ENE 4.3 mph6.9 kmh 28.89 in978.3 mb 0.00 in0.0 mm 0.00 in0.0 mm 0.00 in0.0 mm
07:54 AM 71.8°F22.1°C 63.4°F17.4°C 75% Calm Calm 4.3 mph6.9 kmh 28.89 in978.3 mb 0.00 in0.0 mm 0.00 in0.0 mm 0.00 in0.0 mm
07:53 AM 71.8°F22.1°C 63.4°F17.4°C 75% Calm Calm 4.3 mph6.9 kmh 28.89 in978.3 mb 0.00 in0.0 mm 0.00 in0.0 mm 0.00 in0.0 mm
07:52 AM 71.8°F22.1°C 63.4°F17.4°C 75% Calm Calm 4.3 mph6.9 kmh 28.89 in978.3 mb 0.00 in0.0 mm 0.00 in0.0 mm 0.00 in0.0 mm
07:51 AM 71.8°F22.1°C 63.4°F17.4°C 75% 3.1 mph ENE5.0 kmh ENE 4.3 mph6.9 kmh 28.89 in978.3 mb 0.00 in0.0 mm 0.00 in0.0 mm 0.00 in0.0 mm
07:50 AM 71.8°F22.1°C 63.4°F17.4°C 75% 3.1 mph ENE5.0 kmh ENE 4.3 mph6.9 kmh 28.89 in978.3 mb 0.00 in0.0 mm 0.00 in0.0 mm 0.00 in0.0 mm
07:49 AM 71.8°F22.1°C 63.4°F17.4°C 75% 0.4 mph ENE0.6 kmh ENE 3.8 mph6.1 kmh 28.89 in978.3 mb 0.00 in0.0 mm 0.00 in0.0 mm 0.00 in0.0 mm
07:48 AM 71.8°F22.1°C 63.4°F17.4°C 75% 1.1 mph ENE1.8 kmh ENE 3.8 mph6.1 kmh 28.89 in978.3 mb 0.00 in0.0 mm 0.00 in0.0 mm 0.00 in0.0 mm
07:47 AM 71.8°F22.1°C 63.4°F17.4°C 75% Calm Calm 5.1 mph8.2 kmh 28.89 in978.3 mb 0.00 in0.0 mm 0.00 in0.0 mm 0.00 in0.0 mm
07:46 AM 71.8°F22.1°C 63.4°F17.4°C 75% Calm Calm 5.1 mph8.2 kmh 28.89 in978.3 mb 0.00 in0.0 mm 0.00 in0.0 mm 0.00 in0.0 mm
07:45 AM 71.8°F22.1°C 63.4°F17.4°C 75% Calm Calm 5.1 mph8.2 kmh 28.89 in978.3 mb 0.00 in0.0 mm 0.00 in0.0 mm 0.00 in0.0 mm
07:44 AM 71.8°F22.1°C 63.4°F17.4°C 75% 1.6 mph ENE2.6 kmh ENE 6.0 mph9.7 kmh 28.89 in978.3 mb 0.00 in0.0 mm 0.00 in0.0 mm 0.00 in0.0 mm
07:43 AM 71.8°F22.1°C 63.4°F17.4°C 75% Calm Calm 6.0 mph9.7 kmh 28.89 in978.3 mb 0.00 in0.0 mm 0.00 in0.0 mm 0.00 in0.0 mm
07:42 AM 71.8°F22.1°C 63.4°F17.4°C 75% Calm Calm 6.0 mph9.7 kmh 28.89 in978.3 mb 0.00 in0.0 mm 0.00 in0.0 mm 0.00 in0.0 mm
07:41 AM 71.8°F22.1°C 63.4°F17.4°C 75% Calm Calm 6.0 mph9.7 kmh 28.89 in978.3 mb 0.00 in0.0 mm 0.00 in0.0 mm 0.00 in0.0 mm
07:40 AM 71.8°F22.1°C 63.4°F17.4°C 75% 0.7 mph ENE1.1 kmh ENE 6.0 mph9.7 kmh 28.89 in978.3 mb 0.00 in0.0 mm 0.00 in0.0 mm 0.00 in0.0 mm
07:39 AM 71.8°F22.1°C 63.4°F17.4°C 75% 2.7 mph ENE4.3 kmh ENE 6.0 mph9.7 kmh 28.89 in978.3 mb 0.00 in0.0 mm 0.00 in0.0 mm 0.00 in0.0 mm
07:38 AM 71.8°F22.1°C 63.4°F17.4°C 75% 2.9 mph ENE4.7 kmh ENE 6.0 mph9.7 kmh 28.89 in978.3 mb 0.00 in0.0 mm 0.00 in0.0 mm 0.00 in0.0 mm
07:37 AM 71.8°F22.1°C 63.4°F17.4°C 75% 2.5 mph ENE4.0 kmh ENE 6.0 mph9.7 kmh 28.89 in978.3 mb 0.00 in0.0 mm 0.00 in0.0 mm 0.00 in0.0 mm
07:36 AM 71.8°F22.1°C 63.4°F17.4°C 75% 3.1 mph ENE5.0 kmh ENE 6.0 mph9.7 kmh 28.89 in978.3 mb 0.00 in0.0 mm 0.00 in0.0 mm 0.00 in0.0 mm
07:35 AM 71.8°F22.1°C 63.4°F17.4°C 75% 2.9 mph ENE4.7 kmh ENE 6.0 mph9.7 kmh 28.89 in978.3 mb 0.00 in0.0 mm 0.00 in0.0 mm 0.00 in0.0 mm
07:34 AM 71.8°F22.1°C 63.4°F17.4°C 75% 4.9 mph ENE7.9 kmh ENE 5.4 mph8.7 kmh 28.89 in978.3 mb 0.00 in0.0 mm 0.00 in0.0 mm 0.00 in0.0 mm
07:33 AM 71.8°F22.1°C 63.4°F17.4°C 75% 4.9 mph E7.9 kmh E 5.1 mph8.2 kmh 28.89 in978.3 mb 0.00 in0.0 mm 0.00 in0.0 mm 0.00 in0.0 mm
07:32 AM 71.8°F22.1°C 63.4°F17.4°C 75% 2.2 mph E3.5 kmh E 5.1 mph8.2 kmh 28.89 in978.3 mb 0.00 in0.0 mm 0.00 in0.0 mm 0.00 in0.0 mm
07:31 AM 71.8°F22.1°C 63.4°F17.4°C 75% 0.2 mph E0.3 kmh E 5.1 mph8.2 kmh 28.89 in978.3 mb 0.00 in0.0 mm 0.00 in0.0 mm 0.00 in0.0 mm
07:30 AM 71.6°F22.0°C 63.2°F17.3°C 75% 1.6 mph E2.6 kmh E 5.1 mph8.2 kmh 28.89 in978.3 mb 0.00 in0.0 mm 0.00 in0.0 mm 0.00 in0.0 mm
07:29 AM 71.8°F22.1°C 63.4°F17.4°C 75% 1.6 mph E2.6 kmh E 5.1 mph8.2 kmh 28.89 in978.3 mb 0.00 in0.0 mm 0.00 in0.0 mm 0.00 in0.0 mm
07:28 AM 71.6°F22.0°C 63.2°F17.3°C 75% 0.2 mph E0.3 kmh E 5.8 mph9.3 kmh 28.89 in978.3 mb 0.00 in0.0 mm 0.00 in0.0 mm 0.00 in0.0 mm
07:27 AM 71.6°F22.0°C 63.2°F17.3°C 75% Calm Calm 5.8 mph9.3 kmh 28.89 in978.3 mb 0.00 in0.0 mm 0.00 in0.0 mm 0.00 in0.0 mm
07:26 AM 71.6°F22.0°C 63.2°F17.3°C 75% Calm Calm 6.9 mph11.1 kmh 28.88 in978.0 mb 0.00 in0.0 mm 0.00 in0.0 mm 0.00 in0.0 mm
07:25 AM 71.6°F22.0°C 63.2°F17.3°C 75% 2.5 mph E4.0 kmh E 6.9 mph11.1 kmh 28.88 in978.0 mb 0.00 in0.0 mm 0.00 in0.0 mm 0.00 in0.0 mm
07:24 AM 71.6°F22.0°C 63.2°F17.3°C 75% Calm Calm 6.9 mph11.1 kmh 28.88 in978.0 mb 0.00 in0.0 mm 0.00 in0.0 mm 0.00 in0.0 mm
07:23 AM 71.6°F22.0°C 63.2°F17.3°C 75% 4.9 mph E7.9 kmh E 6.9 mph11.1 kmh 28.88 in978.0 mb 0.00 in0.0 mm 0.00 in0.0 mm 0.00 in0.0 mm
07:22 AM 71.6°F22.0°C 63.2°F17.3°C 75% 2.9 mph E4.7 kmh E 6.9 mph11.1 kmh 28.88 in978.0 mb 0.00 in0.0 mm 0.00 in0.0 mm 0.00 in0.0 mm
07:21 AM 71.6°F22.0°C 63.2°F17.3°C 75% 2.9 mph E4.7 kmh E 6.9 mph11.1 kmh 28.88 in978.0 mb 0.00 in0.0 mm 0.00 in0.0 mm 0.00 in0.0 mm
07:20 AM 71.6°F22.0°C 63.2°F17.3°C 75% 3.1 mph E5.0 kmh E 6.9 mph11.1 kmh 28.88 in978.0 mb 0.00 in0.0 mm 0.00 in0.0 mm 0.00 in0.0 mm
07:19 AM 71.4°F21.9°C 63.0°F17.2°C 75% 2.9 mph E4.7 kmh E 6.9 mph11.1 kmh 28.88 in978.0 mb 0.00 in0.0 mm 0.00 in0.0 mm 0.00 in0.0 mm
07:18 AM 71.4°F21.9°C 63.0°F17.2°C 75% 5.8 mph E9.3 kmh E 6.9 mph11.1 kmh 28.89 in978.3 mb 0.00 in0.0 mm 0.00 in0.0 mm 0.00 in0.0 mm
07:17 AM 71.4°F21.9°C 63.0°F17.2°C 75% 4.7 mph E7.6 kmh E 6.9 mph11.1 kmh 28.88 in978.0 mb 0.00 in0.0 mm 0.00 in0.0 mm 0.00 in0.0 mm
07:16 AM 71.4°F21.9°C 63.0°F17.2°C 75% 4.9 mph E7.9 kmh E 4.9 mph7.9 kmh 28.88 in978.0 mb 0.00 in0.0 mm 0.00 in0.0 mm 0.00 in0.0 mm
07:15 AM 71.4°F21.9°C 63.0°F17.2°C 75% Calm Calm 2.9 mph4.7 kmh 28.89 in978.3 mb 0.00 in0.0 mm 0.00 in0.0 mm 0.00 in0.0 mm
07:14 AM 71.4°F21.9°C 63.0°F17.2°C 75% Calm Calm 2.7 mph4.3 kmh 28.88 in978.0 mb 0.00 in0.0 mm 0.00 in0.0 mm 0.00 in0.0 mm
07:13 AM 71.4°F21.9°C 63.0°F17.2°C 75% Calm Calm 2.7 mph4.3 kmh 28.88 in978.0 mb 0.00 in0.0 mm 0.00 in0.0 mm 0.00 in0.0 mm
07:12 AM 71.4°F21.9°C 63.0°F17.2°C 75% 1.6 mph ESE2.6 kmh ESE 2.7 mph4.3 kmh 28.88 in978.0 mb 0.00 in0.0 mm 0.00 in0.0 mm 0.00 in0.0 mm
07:11 AM 71.4°F21.9°C 63.0°F17.2°C 75% 1.3 mph ESE2.1 kmh ESE 1.3 mph2.1 kmh 28.88 in978.0 mb 0.00 in0.0 mm 0.00 in0.0 mm 0.00 in0.0 mm
07:10 AM 71.4°F21.9°C 63.0°F17.2°C 75% Calm Calm 1.3 mph2.1 kmh 28.88 in978.0 mb 0.00 in0.0 mm 0.00 in0.0 mm 0.00 in0.0 mm
07:09 AM 71.4°F21.9°C 63.0°F17.2°C 75% Calm Calm 1.6 mph2.6 kmh 28.88 in978.0 mb 0.00 in0.0 mm 0.00 in0.0 mm 0.00 in0.0 mm
07:08 AM 71.4°F21.9°C 63.0°F17.2°C 75% Calm Calm 1.6 mph2.6 kmh 28.88 in978.0 mb 0.00 in0.0 mm 0.00 in0.0 mm 0.00 in0.0 mm
07:07 AM 71.4°F21.9°C 63.0°F17.2°C 75% Calm Calm 3.8 mph6.1 kmh 28.88 in978.0 mb 0.00 in0.0 mm 0.00 in0.0 mm 0.00 in0.0 mm
07:06 AM 71.4°F21.9°C 63.0°F17.2°C 75% Calm Calm 3.8 mph6.1 kmh 28.88 in978.0 mb 0.00 in0.0 mm 0.00 in0.0 mm 0.00 in0.0 mm
07:05 AM 71.4°F21.9°C 63.0°F17.2°C 75% Calm Calm 3.8 mph6.1 kmh 28.88 in978.0 mb 0.00 in0.0 mm 0.00 in0.0 mm 0.00 in0.0 mm
07:04 AM 71.4°F21.9°C 63.0°F17.2°C 75% Calm Calm 3.8 mph6.1 kmh 28.88 in978.0 mb 0.00 in0.0 mm 0.00 in0.0 mm 0.00 in0.0 mm
07:03 AM 71.4°F21.9°C 63.0°F17.2°C 75% Calm Calm 3.8 mph6.1 kmh 28.88 in978.0 mb 0.00 in0.0 mm 0.00 in0.0 mm 0.00 in0.0 mm
07:02 AM 71.4°F21.9°C 63.0°F17.2°C 75% Calm Calm 3.8 mph6.1 kmh 28.88 in978.0 mb 0.00 in0.0 mm 0.00 in0.0 mm 0.00 in0.0 mm
07:01 AM 71.4°F21.9°C 63.0°F17.2°C 75% Calm Calm 3.8 mph6.1 kmh 28.88 in978.0 mb 0.00 in0.0 mm 0.00 in0.0 mm 0.00 in0.0 mm
07:00 AM 71.4°F21.9°C 63.0°F17.2°C 75% Calm Calm 3.8 mph6.1 kmh 28.87 in977.7 mb 0.00 in0.0 mm 0.00 in0.0 mm 0.00 in0.0 mm
06:59 AM 71.4°F21.9°C 63.0°F17.2°C 75% Calm Calm 3.8 mph6.1 kmh 28.88 in978.0 mb 0.00 in0.0 mm 0.00 in0.0 mm 0.00 in0.0 mm
06:58 AM 71.4°F21.9°C 63.0°F17.2°C 75% 3.1 mph E5.0 kmh E 3.8 mph6.1 kmh 28.88 in978.0 mb 0.00 in0.0 mm 0.00 in0.0 mm 0.00 in0.0 mm
06:57 AM 71.4°F21.9°C 63.0°F17.2°C 75% Calm Calm 2.2 mph3.5 kmh 28.88 in978.0 mb 0.00 in0.0 mm 0.00 in0.0 mm 0.00 in0.0 mm
06:56 AM 71.4°F21.9°C 63.0°F17.2°C 75% Calm Calm 1.8 mph2.9 kmh 28.88 in978.0 mb 0.00 in0.0 mm 0.00 in0.0 mm 0.00 in0.0 mm
06:55 AM 71.4°F21.9°C 63.4°F17.4°C 76% Calm Calm -- 28.88 in978.0 mb 0.00 in0.0 mm 0.00 in0.0 mm 0.00 in0.0 mm
06:54 AM 71.4°F21.9°C 63.4°F17.4°C 76% Calm Calm -- 28.88 in978.0 mb 0.00 in0.0 mm 0.00 in0.0 mm 0.00 in0.0 mm
06:53 AM 71.4°F21.9°C 63.4°F17.4°C 76% Calm Calm -- 28.88 in978.0 mb 0.00 in0.0 mm 0.00 in0.0 mm 0.00 in0.0 mm
06:52 AM 71.4°F21.9°C 63.4°F17.4°C 76% Calm Calm -- 28.88 in978.0 mb 0.00 in0.0 mm 0.00 in0.0 mm 0.00 in0.0 mm
06:51 AM 71.4°F21.9°C 63.4°F17.4°C 76% Calm Calm -- 28.88 in978.0 mb 0.00 in0.0 mm 0.00 in0.0 mm 0.00 in0.0 mm
06:50 AM 71.4°F21.9°C 63.4°F17.4°C 76% Calm Calm -- 28.88 in978.0 mb 0.00 in0.0 mm 0.00 in0.0 mm 0.00 in0.0 mm
06:49 AM 71.4°F21.9°C 63.4°F17.4°C 76% Calm Calm 2.9 mph4.7 kmh 28.88 in978.0 mb 0.00 in0.0 mm 0.00 in0.0 mm 0.00 in0.0 mm
06:48 AM 71.4°F21.9°C 63.4°F17.4°C 76% Calm Calm 4.9 mph7.9 kmh 28.88 in978.0 mb 0.00 in0.0 mm 0.00 in0.0 mm 0.00 in0.0 mm
06:47 AM 71.4°F21.9°C 63.4°F17.4°C 76% Calm Calm 4.9 mph7.9 kmh 28.88 in978.0 mb 0.00 in0.0 mm 0.00 in0.0 mm 0.00 in0.0 mm
06:46 AM 71.2°F21.8°C 63.2°F17.3°C 76% Calm Calm 4.9 mph7.9 kmh 28.88 in978.0 mb 0.00 in0.0 mm 0.00 in0.0 mm 0.00 in0.0 mm
06:45 AM 71.4°F21.9°C 63.0°F17.2°C 75% Calm Calm 4.9 mph7.9 kmh 28.88 in978.0 mb 0.00 in0.0 mm 0.00 in0.0 mm 0.00 in0.0 mm
06:44 AM 71.4°F21.9°C 63.0°F17.2°C 75% Calm Calm 6.0 mph9.7 kmh 28.88 in978.0 mb 0.00 in0.0 mm 0.00 in0.0 mm 0.00 in0.0 mm
06:43 AM 71.4°F21.9°C 63.0°F17.2°C 75% Calm Calm 6.0 mph9.7 kmh 28.88 in978.0 mb 0.00 in0.0 mm 0.00 in0.0 mm 0.00 in0.0 mm
06:42 AM 71.4°F21.9°C 63.0°F17.2°C 75% Calm Calm 6.0 mph9.7 kmh 28.88 in978.0 mb 0.00 in0.0 mm 0.00 in0.0 mm 0.00 in0.0 mm
06:41 AM 71.2°F21.8°C 62.9°F17.2°C 75% Calm Calm 6.0 mph9.7 kmh 28.88 in978.0 mb 0.00 in0.0 mm 0.00 in0.0 mm 0.00 in0.0 mm
06:40 AM 71.2°F21.8°C 62.9°F17.2°C 75% 2.9 mph SE4.7 kmh SE 6.0 mph9.7 kmh 28.87 in977.7 mb 0.00 in0.0 mm 0.00 in0.0 mm 0.00 in0.0 mm
06:39 AM 71.2°F21.8°C 62.9°F17.2°C 75% Calm Calm 6.0 mph9.7 kmh 28.87 in977.7 mb 0.00 in0.0 mm 0.00 in0.0 mm 0.00 in0.0 mm
06:38 AM 71.4°F21.9°C 63.0°F17.2°C 75% 4.5 mph SE7.2 kmh SE 6.0 mph9.7 kmh 28.87 in977.7 mb 0.00 in0.0 mm 0.00 in0.0 mm 0.00 in0.0 mm
06:37 AM 71.2°F21.8°C 62.9°F17.2°C 75% Calm Calm 6.0 mph9.7 kmh 28.87 in977.7 mb 0.00 in0.0 mm 0.00 in0.0 mm 0.00 in0.0 mm
06:36 AM 71.2°F21.8°C 62.9°F17.2°C 75% 2.2 mph SE3.5 kmh SE 6.0 mph9.7 kmh 28.87 in977.7 mb 0.00 in0.0 mm 0.00 in0.0 mm 0.00 in0.0 mm
06:35 AM 71.2°F21.8°C 62.9°F17.2°C 75% 5.6 mph SE9.0 kmh SE 6.0 mph9.7 kmh 28.87 in977.7 mb 0.00 in0.0 mm 0.00 in0.0 mm 0.00 in0.0 mm
06:34 AM 71.2°F21.8°C 62.9°F17.2°C 75% Calm Calm 5.6 mph9.0 kmh 28.87 in977.7 mb 0.00 in0.0 mm 0.00 in0.0 mm 0.00 in0.0 mm
06:33 AM 71.2°F21.8°C 62.9°F17.2°C 75% 3.8 mph ESE6.1 kmh ESE 5.6 mph9.0 kmh 28.87 in977.7 mb 0.00 in0.0 mm 0.00 in0.0 mm 0.00 in0.0 mm
06:32 AM 71.4°F21.9°C 63.0°F17.2°C 75% 2.0 mph ESE3.2 kmh ESE 4.5 mph7.2 kmh 28.87 in977.7 mb 0.00 in0.0 mm 0.00 in0.0 mm 0.00 in0.0 mm
06:31 AM 71.2°F21.8°C 62.9°F17.2°C 75% 2.0 mph ESE3.2 kmh ESE 4.5 mph7.2 kmh 28.87 in977.7 mb 0.00 in0.0 mm 0.00 in0.0 mm 0.00 in0.0 mm
06:30 AM 71.2°F21.8°C 62.9°F17.2°C 75% 1.8 mph ESE2.9 kmh ESE 4.5 mph7.2 kmh 28.87 in977.7 mb 0.00 in0.0 mm 0.00 in0.0 mm 0.00 in0.0 mm
06:29 AM 71.2°F21.8°C 62.9°F17.2°C 75% 1.6 mph ESE2.6 kmh ESE 4.5 mph7.2 kmh 28.87 in977.7 mb 0.00 in0.0 mm 0.00 in0.0 mm 0.00 in0.0 mm
06:28 AM 71.2°F21.8°C 62.9°F17.2°C 75% 2.7 mph ESE4.3 kmh ESE 4.5 mph7.2 kmh 28.87 in977.7 mb 0.00 in0.0 mm 0.00 in0.0 mm 0.00 in0.0 mm
06:27 AM 71.2°F21.8°C 62.9°F17.2°C 75% 1.6 mph ESE2.6 kmh ESE 4.0 mph6.4 kmh 28.87 in977.7 mb 0.00 in0.0 mm 0.00 in0.0 mm 0.00 in0.0 mm
06:26 AM 71.4°F21.9°C 63.0°F17.2°C 75% Calm Calm 4.0 mph6.4 kmh 28.87 in977.7 mb 0.00 in0.0 mm 0.00 in0.0 mm 0.00 in0.0 mm
06:25 AM 71.4°F21.9°C 63.0°F17.2°C 75% Calm Calm 4.0 mph6.4 kmh 28.87 in977.7 mb 0.00 in0.0 mm 0.00 in0.0 mm 0.00 in0.0 mm
06:24 AM 71.4°F21.9°C 63.0°F17.2°C 75% 2.2 mph ESE3.5 kmh ESE 4.0 mph6.4 kmh 28.87 in977.7 mb 0.00 in0.0 mm 0.00 in0.0 mm 0.00 in0.0 mm
06:23 AM 71.4°F21.9°C 63.0°F17.2°C 75% Calm Calm 4.3 mph6.9 kmh 28.87 in977.7 mb 0.00 in0.0 mm 0.00 in0.0 mm 0.00 in0.0 mm
06:22 AM 71.4°F21.9°C 63.0°F17.2°C 75% 3.1 mph ESE5.0 kmh ESE 4.9 mph7.9 kmh 28.87 in977.7 mb 0.00 in0.0 mm 0.00 in0.0 mm 0.00 in0.0 mm
06:21 AM 71.4°F21.9°C 63.0°F17.2°C 75% Calm Calm 6.3 mph10.1 kmh 28.87 in977.7 mb 0.00 in0.0 mm 0.00 in0.0 mm 0.00 in0.0 mm
06:20 AM 71.4°F21.9°C 63.0°F17.2°C 75% Calm Calm 6.5 mph10.5 kmh 28.87 in977.7 mb 0.00 in0.0 mm 0.00 in0.0 mm 0.00 in0.0 mm
06:19 AM 71.4°F21.9°C 63.0°F17.2°C 75% Calm Calm 6.5 mph10.5 kmh 28.87 in977.7 mb 0.00 in0.0 mm 0.00 in0.0 mm 0.00 in0.0 mm
06:18 AM 71.4°F21.9°C 63.0°F17.2°C 75% Calm Calm 6.9 mph11.1 kmh 28.87 in977.7 mb 0.00 in0.0 mm 0.00 in0.0 mm 0.00 in0.0 mm
06:17 AM 71.4°F21.9°C 63.0°F17.2°C 75% Calm Calm 7.4 mph11.9 kmh 28.87 in977.7 mb 0.00 in0.0 mm 0.00 in0.0 mm 0.00 in0.0 mm
06:16 AM 71.4°F21.9°C 63.0°F17.2°C 75% Calm Calm 7.6 mph12.2 kmh 28.87 in977.7 mb 0.00 in0.0 mm 0.00 in0.0 mm 0.00 in0.0 mm
06:15 AM 71.4°F21.9°C 63.0°F17.2°C 75% Calm Calm 8.9 mph14.3 kmh 28.87 in977.7 mb 0.00 in0.0 mm 0.00 in0.0 mm 0.00 in0.0 mm
06:14 AM 71.4°F21.9°C 63.0°F17.2°C 75% 1.3 mph ESE2.1 kmh ESE 8.9 mph14.3 kmh 28.87 in977.7 mb 0.00 in0.0 mm 0.00 in0.0 mm 0.00 in0.0 mm
06:13 AM 71.4°F21.9°C 63.0°F17.2°C 75% 4.9 mph E7.9 kmh E 8.9 mph14.3 kmh 28.87 in977.7 mb 0.00 in0.0 mm 0.00 in0.0 mm 0.00 in0.0 mm
06:12 AM 71.4°F21.9°C 63.0°F17.2°C 75% 4.9 mph E7.9 kmh E 8.9 mph14.3 kmh 28.87 in977.7 mb 0.00 in0.0 mm 0.00 in0.0 mm 0.00 in0.0 mm
06:11 AM 71.4°F21.9°C 63.0°F17.2°C 75% 5.6 mph E9.0 kmh E 10.3 mph16.6 kmh 28.87 in977.7 mb 0.00 in0.0 mm 0.00 in0.0 mm 0.00 in0.0 mm
06:10 AM 71.4°F21.9°C 63.0°F17.2°C 75% 6.5 mph E10.5 kmh E 10.3 mph16.6 kmh 28.87 in977.7 mb 0.00 in0.0 mm 0.00 in0.0 mm 0.00 in0.0 mm
06:09 AM 71.4°F21.9°C 63.0°F17.2°C 75% 4.7 mph E7.6 kmh E 10.3 mph16.6 kmh 28.87 in977.7 mb 0.00 in0.0 mm 0.00 in0.0 mm 0.00 in0.0 mm
06:08 AM 71.4°F21.9°C 63.0°F17.2°C 75% 6.0 mph E9.7 kmh E 10.3 mph16.6 kmh 28.86 in977.3 mb 0.00 in0.0 mm 0.00 in0.0 mm 0.00 in0.0 mm
06:07 AM 71.4°F21.9°C 63.0°F17.2°C 75% 4.9 mph E7.9 kmh E 10.3 mph16.6 kmh 28.87 in977.7 mb 0.00 in0.0 mm 0.00 in0.0 mm 0.00 in0.0 mm
06:06 AM 71.4°F21.9°C 63.0°F17.2°C 75% 7.6 mph E12.2 kmh E 10.3 mph16.6 kmh 28.87 in977.7 mb 0.00 in0.0 mm 0.00 in0.0 mm 0.00 in0.0 mm
06:05 AM 71.4°F21.9°C 63.0°F17.2°C 75% 5.1 mph E8.2 kmh E 10.3 mph16.6 kmh 28.87 in977.7 mb 0.00 in0.0 mm 0.00 in0.0 mm 0.00 in0.0 mm
06:04 AM 71.4°F21.9°C 63.0°F17.2°C 75% 4.9 mph E7.9 kmh E 10.3 mph16.6 kmh 28.87 in977.7 mb 0.00 in0.0 mm 0.00 in0.0 mm 0.00 in0.0 mm
06:03 AM 71.4°F21.9°C 63.0°F17.2°C 75% 4.3 mph E6.9 kmh E 10.3 mph16.6 kmh 28.87 in977.7 mb 0.00 in0.0 mm 0.00 in0.0 mm 0.00 in0.0 mm
06:02 AM 71.4°F21.9°C 63.0°F17.2°C 75% 6.5 mph E10.5 kmh E 10.3 mph16.6 kmh 28.87 in977.7 mb 0.00 in0.0 mm 0.00 in0.0 mm 0.00 in0.0 mm
06:01 AM 71.4°F21.9°C 63.0°F17.2°C 75% 5.6 mph E9.0 kmh E 8.3 mph13.4 kmh 28.86 in977.3 mb 0.00 in0.0 mm 0.00 in0.0 mm 0.00 in0.0 mm
06:00 AM 71.4°F21.9°C 63.0°F17.2°C 75% 3.1 mph E5.0 kmh E 8.3 mph13.4 kmh 28.87 in977.7 mb 0.00 in0.0 mm 0.00 in0.0 mm 0.00 in0.0 mm
05:59 AM 71.4°F21.9°C 63.0°F17.2°C 75% Calm Calm 8.3 mph13.4 kmh 28.87 in977.7 mb 0.00 in0.0 mm 0.00 in0.0 mm 0.00 in0.0 mm
05:58 AM 71.4°F21.9°C 63.0°F17.2°C 75% 5.1 mph E8.2 kmh E 8.3 mph13.4 kmh 28.87 in977.7 mb 0.00 in0.0 mm 0.00 in0.0 mm 0.00 in0.0 mm
05:57 AM 71.4°F21.9°C 63.0°F17.2°C 75% 1.1 mph E1.8 kmh E 8.3 mph13.4 kmh 28.87 in977.7 mb 0.00 in0.0 mm 0.00 in0.0 mm 0.00 in0.0 mm
05:56 AM 71.4°F21.9°C 63.0°F17.2°C 75% Calm Calm 8.3 mph13.4 kmh 28.86 in977.3 mb 0.00 in0.0 mm 0.00 in0.0 mm 0.00 in0.0 mm
05:55 AM 71.4°F21.9°C 63.0°F17.2°C 75% 4.3 mph E6.9 kmh E 8.3 mph13.4 kmh 28.87 in977.7 mb 0.00 in0.0 mm 0.00 in0.0 mm 0.00 in0.0 mm
05:54 AM 71.4°F21.9°C 63.0°F17.2°C 75% 5.4 mph E8.7 kmh E 8.3 mph13.4 kmh 28.87 in977.7 mb 0.00 in0.0 mm 0.00 in0.0 mm 0.00 in0.0 mm
05:53 AM 71.4°F21.9°C 63.0°F17.2°C 75% 6.3 mph E10.1 kmh E 8.5 mph13.7 kmh 28.87 in977.7 mb 0.00 in0.0 mm 0.00 in0.0 mm 0.00 in0.0 mm
05:52 AM 71.4°F21.9°C 63.0°F17.2°C 75% 3.1 mph E5.0 kmh E 8.5 mph13.7 kmh 28.86 in977.3 mb 0.00 in0.0 mm 0.00 in0.0 mm 0.00 in0.0 mm
05:51 AM 71.4°F21.9°C 63.0°F17.2°C 75% 4.3 mph E6.9 kmh E 9.4 mph15.1 kmh 28.86 in977.3 mb 0.00 in0.0 mm 0.00 in0.0 mm 0.00 in0.0 mm
05:50 AM 71.4°F21.9°C 63.0°F17.2°C 75% 7.8 mph E12.6 kmh E 9.4 mph15.1 kmh 28.86 in977.3 mb 0.00 in0.0 mm 0.00 in0.0 mm 0.00 in0.0 mm
05:49 AM 71.4°F21.9°C 63.0°F17.2°C 75% 2.5 mph E4.0 kmh E 9.4 mph15.1 kmh 28.86 in977.3 mb 0.00 in0.0 mm 0.00 in0.0 mm 0.00 in0.0 mm
05:48 AM 71.4°F21.9°C 63.0°F17.2°C 75% 3.1 mph E5.0 kmh E 11.6 mph18.7 kmh 28.86 in977.3 mb 0.00 in0.0 mm 0.00 in0.0 mm 0.00 in0.0 mm
05:47 AM 71.4°F21.9°C 63.0°F17.2°C 75% 4.9 mph E7.9 kmh E 11.6 mph18.7 kmh 28.86 in977.3 mb 0.00 in0.0 mm 0.00 in0.0 mm 0.00 in0.0 mm
05:46 AM 71.4°F21.9°C 63.0°F17.2°C 75% 4.0 mph E6.4 kmh E 11.6 mph18.7 kmh 28.86 in977.3 mb 0.00 in0.0 mm 0.00 in0.0 mm 0.00 in0.0 mm
05:45 AM 71.4°F21.9°C 63.0°F17.2°C 75% 3.6 mph E5.8 kmh E 11.6 mph18.7 kmh 28.86 in977.3 mb 0.00 in0.0 mm 0.00 in0.0 mm 0.00 in0.0 mm
05:44 AM 71.4°F21.9°C 63.0°F17.2°C 75% 7.8 mph E12.6 kmh E 11.6 mph18.7 kmh 28.86 in977.3 mb 0.00 in0.0 mm 0.00 in0.0 mm 0.00 in0.0 mm
05:43 AM 71.4°F21.9°C 63.0°F17.2°C 75% 3.1 mph E5.0 kmh E 11.6 mph18.7 kmh 28.86 in977.3 mb 0.00 in0.0 mm 0.00 in0.0 mm 0.00 in0.0 mm
05:42 AM 71.4°F21.9°C 63.0°F17.2°C 75% 4.9 mph E7.9 kmh E 11.6 mph18.7 kmh 28.86 in977.3 mb 0.00 in0.0 mm 0.00 in0.0 mm 0.00 in0.0 mm
05:41 AM 71.4°F21.9°C 63.0°F17.2°C 75% 6.0 mph E9.7 kmh E 11.6 mph18.7 kmh 28.86 in977.3 mb 0.00 in0.0 mm 0.00 in0.0 mm 0.00 in0.0 mm
05:40 AM 71.4°F21.9°C 63.0°F17.2°C 75% 3.4 mph E5.5 kmh E 11.6 mph18.7 kmh 28.86 in977.3 mb 0.00 in0.0 mm 0.00 in0.0 mm 0.00 in0.0 mm
05:39 AM 71.4°F21.9°C 63.0°F17.2°C 75% 3.1 mph E5.0 kmh E 11.6 mph18.7 kmh 28.86 in977.3 mb 0.00 in0.0 mm 0.00 in0.0 mm 0.00 in0.0 mm
05:38 AM 71.4°F21.9°C 63.0°F17.2°C 75% 3.4 mph E5.5 kmh E 8.7 mph14.0 kmh 28.86 in977.3 mb 0.00 in0.0 mm 0.00 in0.0 mm 0.00 in0.0 mm
05:37 AM 71.4°F21.9°C 63.0°F17.2°C 75% 3.8 mph E6.1 kmh E 8.7 mph14.0 kmh 28.86 in977.3 mb 0.00 in0.0 mm 0.00 in0.0 mm 0.00 in0.0 mm
05:36 AM 71.4°F21.9°C 63.0°F17.2°C 75% 5.4 mph E8.7 kmh E 8.7 mph14.0 kmh 28.86 in977.3 mb 0.00 in0.0 mm 0.00 in0.0 mm 0.00 in0.0 mm
05:35 AM 71.4°F21.9°C 63.0°F17.2°C 75% 6.7 mph E10.8 kmh E 8.7 mph14.0 kmh 28.86 in977.3 mb 0.00 in0.0 mm 0.00 in0.0 mm 0.00 in0.0 mm
05:34 AM 71.4°F21.9°C 63.0°F17.2°C 75% 2.9 mph E4.7 kmh E 8.7 mph14.0 kmh 28.86 in977.3 mb 0.00 in0.0 mm 0.00 in0.0 mm 0.00 in0.0 mm
05:33 AM 71.4°F21.9°C 63.0°F17.2°C 75% 5.6 mph E9.0 kmh E 8.7 mph14.0 kmh 28.86 in977.3 mb 0.00 in0.0 mm 0.00 in0.0 mm 0.00 in0.0 mm
05:32 AM 71.4°F21.9°C 63.0°F17.2°C 75% 8.1 mph E13.0 kmh E 8.7 mph14.0 kmh 28.86 in977.3 mb 0.00 in0.0 mm 0.00 in0.0 mm 0.00 in0.0 mm
05:31 AM 71.4°F21.9°C 63.0°F17.2°C 75% 8.7 mph E14.0 kmh E 8.7 mph14.0 kmh 28.86 in977.3 mb 0.00 in0.0 mm 0.00 in0.0 mm 0.00 in0.0 mm
05:30 AM 71.4°F21.9°C 63.0°F17.2°C 75% 4.3 mph E6.9 kmh E 8.3 mph13.4 kmh 28.86 in977.3 mb 0.00 in0.0 mm 0.00 in0.0 mm 0.00 in0.0 mm
05:29 AM 71.4°F21.9°C 63.0°F17.2°C 75% 4.7 mph E7.6 kmh E 8.3 mph13.4 kmh 28.86 in977.3 mb 0.00 in0.0 mm 0.00 in0.0 mm 0.00 in0.0 mm
05:28 AM 71.4°F21.9°C 63.0°F17.2°C 75% 5.6 mph E9.0 kmh E 8.3 mph13.4 kmh 28.86 in977.3 mb 0.00 in0.0 mm 0.00 in0.0 mm 0.00 in0.0 mm
05:27 AM 71.4°F21.9°C 63.0°F17.2°C 75% 4.9 mph E7.9 kmh E 8.3 mph13.4 kmh 28.86 in977.3 mb 0.00 in0.0 mm 0.00 in0.0 mm 0.00 in0.0 mm
05:26 AM 71.4°F21.9°C 63.0°F17.2°C 75% 1.3 mph E2.1 kmh E 8.3 mph13.4 kmh 28.86 in977.3 mb 0.00 in0.0 mm 0.00 in0.0 mm 0.00 in0.0 mm
05:25 AM 71.4°F21.9°C 63.0°F17.2°C 75% 2.0 mph E3.2 kmh E 8.3 mph13.4 kmh 28.86 in977.3 mb 0.00 in0.0 mm 0.00 in0.0 mm 0.00 in0.0 mm
05:24 AM 71.4°F21.9°C 63.0°F17.2°C 75% 2.9 mph E4.7 kmh E 8.3 mph13.4 kmh 28.86 in977.3 mb 0.00 in0.0 mm 0.00 in0.0 mm 0.00 in0.0 mm
05:23 AM 71.4°F21.9°C 63.0°F17.2°C 75% 3.8 mph E6.1 kmh E 8.5 mph13.7 kmh 28.86 in977.3 mb 0.00 in0.0 mm 0.00 in0.0 mm 0.00 in0.0 mm
05:22 AM 71.4°F21.9°C 63.0°F17.2°C 75% Calm Calm 8.5 mph13.7 kmh 28.86 in977.3 mb 0.00 in0.0 mm 0.00 in0.0 mm 0.00 in0.0 mm
05:21 AM 71.4°F21.9°C 63.0°F17.2°C 75% 4.3 mph E6.9 kmh E 8.5 mph13.7 kmh 28.86 in977.3 mb 0.00 in0.0 mm 0.00 in0.0 mm 0.00 in0.0 mm
05:20 AM 71.4°F21.9°C 63.0°F17.2°C 75% Calm Calm 8.5 mph13.7 kmh 28.86 in977.3 mb 0.00 in0.0 mm 0.00 in0.0 mm 0.00 in0.0 mm
05:19 AM 71.4°F21.9°C 63.0°F17.2°C 75% 1.3 mph E2.1 kmh E 8.5 mph13.7 kmh 28.86 in977.3 mb 0.00 in0.0 mm 0.00 in0.0 mm 0.00 in0.0 mm
05:18 AM 71.4°F21.9°C 63.0°F17.2°C 75% 5.6 mph E9.0 kmh E 8.5 mph13.7 kmh 28.86 in977.3 mb 0.00 in0.0 mm 0.00 in0.0 mm 0.00 in0.0 mm
05:17 AM 71.4°F21.9°C 63.0°F17.2°C 75% 5.1 mph E8.2 kmh E 8.5 mph13.7 kmh 28.86 in977.3 mb 0.00 in0.0 mm 0.00 in0.0 mm 0.00 in0.0 mm
05:16 AM 71.4°F21.9°C 63.0°F17.2°C 75% 5.8 mph E9.3 kmh E 8.5 mph13.7 kmh 28.86 in977.3 mb 0.00 in0.0 mm 0.00 in0.0 mm 0.00 in0.0 mm
05:15 AM 71.4°F21.9°C 63.0°F17.2°C 75% 4.5 mph E7.2 kmh E 8.5 mph13.7 kmh 28.86 in977.3 mb 0.00 in0.0 mm 0.00 in0.0 mm 0.00 in0.0 mm
05:14 AM 71.4°F21.9°C 63.0°F17.2°C 75% 4.9 mph E7.9 kmh E 8.5 mph13.7 kmh 28.86 in977.3 mb 0.00 in0.0 mm 0.00 in0.0 mm 0.00 in0.0 mm
05:13 AM 71.4°F21.9°C 63.0°F17.2°C 75% 5.4 mph E8.7 kmh E 7.6 mph12.2 kmh 28.86 in977.3 mb 0.00 in0.0 mm 0.00 in0.0 mm 0.00 in0.0 mm
05:12 AM 71.4°F21.9°C 63.0°F17.2°C 75% 4.9 mph E7.9 kmh E 7.6 mph12.2 kmh 28.87 in977.7 mb 0.00 in0.0 mm 0.00 in0.0 mm 0.00 in0.0 mm
05:11 AM 71.4°F21.9°C 63.0°F17.2°C 75% 5.4 mph E8.7 kmh E 6.9 mph11.1 kmh 28.86 in977.3 mb 0.00 in0.0 mm 0.00 in0.0 mm 0.00 in0.0 mm
05:10 AM 71.4°F21.9°C 63.0°F17.2°C 75% 3.1 mph E5.0 kmh E 6.9 mph11.1 kmh 28.86 in977.3 mb 0.00 in0.0 mm 0.00 in0.0 mm 0.00 in0.0 mm
05:09 AM 71.4°F21.9°C 63.0°F17.2°C 75% 2.9 mph E4.7 kmh E 6.9 mph11.1 kmh 28.86 in977.3 mb 0.00 in0.0 mm 0.00 in0.0 mm 0.00 in0.0 mm
05:08 AM 71.4°F21.9°C 63.0°F17.2°C 75% 5.1 mph E8.2 kmh E 6.9 mph11.1 kmh 28.86 in977.3 mb 0.00 in0.0 mm 0.00 in0.0 mm 0.00 in0.0 mm
05:07 AM 71.6°F22.0°C 63.2°F17.3°C 75% 6.3 mph E10.1 kmh E 6.9 mph11.1 kmh 28.86 in977.3 mb 0.00 in0.0 mm 0.00 in0.0 mm 0.00 in0.0 mm
05:06 AM 71.4°F21.9°C 63.0°F17.2°C 75% 4.0 mph E6.4 kmh E 6.9 mph11.1 kmh 28.86 in977.3 mb 0.00 in0.0 mm 0.00 in0.0 mm 0.00 in0.0 mm
05:05 AM 71.4°F21.9°C 63.0°F17.2°C 75% 6.9 mph E11.1 kmh E 6.9 mph11.1 kmh 28.86 in977.3 mb 0.00 in0.0 mm 0.00 in0.0 mm 0.00 in0.0 mm
05:04 AM 71.4°F21.9°C 63.0°F17.2°C 75% 5.4 mph E8.7 kmh E 6.7 mph10.8 kmh 28.86 in977.3 mb 0.00 in0.0 mm 0.00 in0.0 mm 0.00 in0.0 mm
05:03 AM 71.4°F21.9°C 63.0°F17.2°C 75% 4.0 mph E6.4 kmh E 6.7 mph10.8 kmh 28.86 in977.3 mb 0.00 in0.0 mm 0.00 in0.0 mm 0.00 in0.0 mm
05:02 AM 71.4°F21.9°C 63.0°F17.2°C 75% 3.6 mph E5.8 kmh E 6.7 mph10.8 kmh 28.86 in977.3 mb 0.00 in0.0 mm 0.00 in0.0 mm 0.00 in0.0 mm
05:01 AM 71.6°F22.0°C 63.2°F17.3°C 75% 2.0 mph E3.2 kmh E 6.0 mph9.7 kmh 28.86 in977.3 mb 0.00 in0.0 mm 0.00 in0.0 mm 0.00 in0.0 mm
05:00 AM 71.4°F21.9°C 63.0°F17.2°C 75% 6.0 mph E9.7 kmh E 6.0 mph9.7 kmh 28.86 in977.3 mb 0.00 in0.0 mm 0.00 in0.0 mm 0.00 in0.0 mm
04:59 AM 71.4°F21.9°C 63.0°F17.2°C 75% 2.7 mph E4.3 kmh E 5.6 mph9.0 kmh 28.86 in977.3 mb 0.00 in0.0 mm 0.00 in0.0 mm 0.00 in0.0 mm
04:58 AM 71.6°F22.0°C 63.2°F17.3°C 75% 4.0 mph E6.4 kmh E 5.4 mph8.7 kmh 28.86 in977.3 mb 0.00 in0.0 mm 0.00 in0.0 mm 0.00 in0.0 mm
04:57 AM 71.6°F22.0°C 63.2°F17.3°C 75% 2.9 mph E4.7 kmh E 5.4 mph8.7 kmh 28.86 in977.3 mb 0.00 in0.0 mm 0.00 in0.0 mm 0.00 in0.0 mm
04:56 AM 71.4°F21.9°C 63.0°F17.2°C 75% 5.1 mph E8.2 kmh E 5.1 mph8.2 kmh 28.86 in977.3 mb 0.00 in0.0 mm 0.00 in0.0 mm 0.00 in0.0 mm
04:55 AM 71.4°F21.9°C 63.0°F17.2°C 75% 3.6 mph E5.8 kmh E 4.5 mph7.2 kmh 28.86 in977.3 mb 0.00 in0.0 mm 0.00 in0.0 mm 0.00 in0.0 mm
04:54 AM 71.4°F21.9°C 63.0°F17.2°C 75% 3.4 mph E5.5 kmh E 4.0 mph6.4 kmh 28.86 in977.3 mb 0.00 in0.0 mm 0.00 in0.0 mm 0.00 in0.0 mm
04:53 AM 71.4°F21.9°C 63.0°F17.2°C 75% Calm Calm 3.8 mph6.1 kmh 28.86 in977.3 mb 0.00 in0.0 mm 0.00 in0.0 mm 0.00 in0.0 mm
04:52 AM 71.4°F21.9°C 63.0°F17.2°C 75% 3.8 mph E6.1 kmh E 3.8 mph6.1 kmh 28.86 in977.3 mb 0.00 in0.0 mm 0.00 in0.0 mm 0.00 in0.0 mm
04:51 AM 71.4°F21.9°C 63.0°F17.2°C 75% 3.4 mph E5.5 kmh E 3.8 mph6.1 kmh 28.86 in977.3 mb 0.00 in0.0 mm 0.00 in0.0 mm 0.00 in0.0 mm
04:50 AM 71.4°F21.9°C 63.0°F17.2°C 75% 3.8 mph E6.1 kmh E 3.8 mph6.1 kmh 28.86 in977.3 mb 0.00 in0.0 mm 0.00 in0.0 mm 0.00 in0.0 mm
04:49 AM 71.4°F21.9°C 63.0°F17.2°C 75% Calm Calm 2.7 mph4.3 kmh 28.86 in977.3 mb 0.00 in0.0 mm 0.00 in0.0 mm 0.00 in0.0 mm
04:48 AM 71.4°F21.9°C 63.0°F17.2°C 75% 1.3 mph E2.1 kmh E 2.7 mph4.3 kmh 28.86 in977.3 mb 0.00 in0.0 mm 0.00 in0.0 mm 0.00 in0.0 mm
04:47 AM 71.4°F21.9°C 63.0°F17.2°C 75% 2.7 mph E4.3 kmh E 2.7 mph4.3 kmh 28.86 in977.3 mb 0.00 in0.0 mm 0.00 in0.0 mm 0.00 in0.0 mm
04:46 AM 71.4°F21.9°C 63.0°F17.2°C 75% Calm Calm 2.2 mph3.5 kmh 28.86 in977.3 mb 0.00 in0.0 mm 0.00 in0.0 mm 0.00 in0.0 mm
04:45 AM 71.4°F21.9°C 63.0°F17.2°C 75% Calm Calm 2.2 mph3.5 kmh 28.86 in977.3 mb 0.00 in0.0 mm 0.00 in0.0 mm 0.00 in0.0 mm
04:44 AM 71.4°F21.9°C 63.0°F17.2°C 75% Calm Calm 2.2 mph3.5 kmh 28.85 in977.0 mb 0.00 in0.0 mm 0.00 in0.0 mm 0.00 in0.0 mm
04:43 AM 71.4°F21.9°C 63.0°F17.2°C 75% Calm Calm 2.2 mph3.5 kmh 28.85 in977.0 mb 0.00 in0.0 mm 0.00 in0.0 mm 0.00 in0.0 mm
04:42 AM 71.4°F21.9°C 63.0°F17.2°C 75% Calm Calm 2.2 mph3.5 kmh 28.85 in977.0 mb 0.00 in0.0 mm 0.00 in0.0 mm 0.00 in0.0 mm
04:41 AM 71.4°F21.9°C 63.4°F17.4°C 76% Calm Calm 2.2 mph3.5 kmh 28.85 in977.0 mb 0.00 in0.0 mm 0.00 in0.0 mm 0.00 in0.0 mm
04:40 AM 71.4°F21.9°C 63.0°F17.2°C 75% Calm Calm 2.2 mph3.5 kmh 28.85 in977.0 mb 0.00 in0.0 mm 0.00 in0.0 mm 0.00 in0.0 mm
04:39 AM 71.4°F21.9°C 63.0°F17.2°C 75% Calm Calm 2.2 mph3.5 kmh 28.85 in977.0 mb 0.00 in0.0 mm 0.00 in0.0 mm 0.00 in0.0 mm
04:38 AM 71.4°F21.9°C 63.0°F17.2°C 75% Calm Calm 1.3 mph2.1 kmh 28.85 in977.0 mb 0.00 in0.0 mm 0.00 in0.0 mm 0.00 in0.0 mm
04:37 AM 71.4°F21.9°C 63.0°F17.2°C 75% Calm Calm 1.3 mph2.1 kmh 28.85 in977.0 mb 0.00 in0.0 mm 0.00 in0.0 mm 0.00 in0.0 mm
04:36 AM 71.4°F21.9°C 63.0°F17.2°C 75% Calm Calm 1.3 mph2.1 kmh 28.85 in977.0 mb 0.00 in0.0 mm 0.00 in0.0 mm 0.00 in0.0 mm
04:35 AM 71.4°F21.9°C 63.0°F17.2°C 75% Calm Calm 1.3 mph2.1 kmh 28.85 in977.0 mb 0.00 in0.0 mm 0.00 in0.0 mm 0.00 in0.0 mm
04:34 AM 71.4°F21.9°C 63.0°F17.2°C 75% Calm Calm 1.3 mph2.1 kmh 28.85 in977.0 mb 0.00 in0.0 mm 0.00 in0.0 mm 0.00 in0.0 mm
04:33 AM 71.4°F21.9°C 63.4°F17.4°C 76% Calm Calm 1.3 mph2.1 kmh 28.85 in977.0 mb 0.00 in0.0 mm 0.00 in0.0 mm 0.00 in0.0 mm
04:32 AM 71.4°F21.9°C 63.4°F17.4°C 76% Calm Calm 1.1 mph1.8 kmh 28.85 in977.0 mb 0.00 in0.0 mm 0.00 in0.0 mm 0.00 in0.0 mm
04:31 AM 71.4°F21.9°C 63.4°F17.4°C 76% Calm Calm 1.1 mph1.8 kmh 28.86 in977.3 mb 0.00 in0.0 mm 0.00 in0.0 mm 0.00 in0.0 mm
04:30 AM 71.4°F21.9°C 63.4°F17.4°C 76% Calm Calm -- 28.85 in977.0 mb 0.00 in0.0 mm 0.00 in0.0 mm 0.00 in0.0 mm
04:29 AM 71.4°F21.9°C 63.4°F17.4°C 76% Calm Calm -- 28.86 in977.3 mb 0.00 in0.0 mm 0.00 in0.0 mm 0.00 in0.0 mm
04:28 AM 71.4°F21.9°C 63.4°F17.4°C 76% Calm Calm -- 28.86 in977.3 mb 0.00 in0.0 mm 0.00 in0.0 mm 0.00 in0.0 mm
04:27 AM 71.4°F21.9°C 63.4°F17.4°C 76% Calm Calm -- 28.86 in977.3 mb 0.00 in0.0 mm 0.00 in0.0 mm 0.00 in0.0 mm
04:26 AM 71.4°F21.9°C 63.4°F17.4°C 76% Calm Calm -- 28.86 in977.3 mb 0.00 in0.0 mm 0.00 in0.0 mm 0.00 in0.0 mm
04:25 AM 71.4°F21.9°C 63.4°F17.4°C 76% Calm Calm -- 28.86 in977.3 mb 0.00 in0.0 mm 0.00 in0.0 mm 0.00 in0.0 mm
04:24 AM 71.4°F21.9°C 63.4°F17.4°C 76% Calm Calm -- 28.86 in977.3 mb 0.00 in0.0 mm 0.00 in0.0 mm 0.00 in0.0 mm
04:23 AM 71.4°F21.9°C 63.4°F17.4°C 76% Calm Calm -- 28.86 in977.3 mb 0.00 in0.0 mm 0.00 in0.0 mm 0.00 in0.0 mm
04:22 AM 71.4°F21.9°C 63.4°F17.4°C 76% Calm Calm -- 28.86 in977.3 mb 0.00 in0.0 mm 0.00 in0.0 mm 0.00 in0.0 mm
04:21 AM 71.4°F21.9°C 63.4°F17.4°C 76% Calm Calm -- 28.86 in977.3 mb 0.00 in0.0 mm 0.00 in0.0 mm 0.00 in0.0 mm
04:20 AM 71.4°F21.9°C 63.4°F17.4°C 76% Calm Calm -- 28.86 in977.3 mb 0.00 in0.0 mm 0.00 in0.0 mm 0.00 in0.0 mm
04:19 AM 71.4°F21.9°C 63.4°F17.4°C 76% Calm Calm -- 28.86 in977.3 mb 0.00 in0.0 mm 0.00 in0.0 mm 0.00 in0.0 mm
04:18 AM 71.4°F21.9°C 63.0°F17.2°C 75% Calm Calm -- 28.86 in977.3 mb 0.00 in0.0 mm 0.00 in0.0 mm 0.00 in0.0 mm
04:17 AM 71.4°F21.9°C 63.0°F17.2°C 75% Calm Calm 2.0 mph3.2 kmh 28.86 in977.3 mb 0.00 in0.0 mm 0.00 in0.0 mm 0.00 in0.0 mm
04:16 AM 71.4°F21.9°C 63.0°F17.2°C 75% Calm Calm 2.0 mph3.2 kmh 28.86 in977.3 mb 0.00 in0.0 mm 0.00 in0.0 mm 0.00 in0.0 mm
04:15 AM 71.4°F21.9°C 63.4°F17.4°C 76% Calm Calm 2.5 mph4.0 kmh 28.86 in977.3 mb 0.00 in0.0 mm 0.00 in0.0 mm 0.00 in0.0 mm
04:14 AM 71.4°F21.9°C 63.4°F17.4°C 76% Calm Calm 2.7 mph4.3 kmh 28.86 in977.3 mb 0.00 in0.0 mm 0.00 in0.0 mm 0.00 in0.0 mm
04:13 AM 71.4°F21.9°C 63.0°F17.2°C 75% Calm Calm 2.7 mph4.3 kmh 28.86 in977.3 mb 0.00 in0.0 mm 0.00 in0.0 mm 0.00 in0.0 mm
04:12 AM 71.2°F21.8°C 62.9°F17.2°C 75% Calm Calm 2.7 mph4.3 kmh 28.86 in977.3 mb 0.00 in0.0 mm 0.00 in0.0 mm 0.00 in0.0 mm
04:11 AM 71.4°F21.9°C 63.0°F17.2°C 75% Calm Calm 2.7 mph4.3 kmh 28.86 in977.3 mb 0.00 in0.0 mm 0.00 in0.0 mm 0.00 in0.0 mm
04:10 AM 71.2°F21.8°C 62.9°F17.2°C 75% Calm Calm 2.7 mph4.3 kmh 28.86 in977.3 mb 0.00 in0.0 mm 0.00 in0.0 mm 0.00 in0.0 mm
04:09 AM 71.2°F21.8°C 62.9°F17.2°C 75% Calm Calm 2.7 mph4.3 kmh 28.86 in977.3 mb 0.00 in0.0 mm 0.00 in0.0 mm 0.00 in0.0 mm
04:08 AM 71.2°F21.8°C 62.9°F17.2°C 75% Calm Calm 2.7 mph4.3 kmh 28.86 in977.3 mb 0.00 in0.0 mm 0.00 in0.0 mm 0.00 in0.0 mm
04:07 AM 71.2°F21.8°C 62.9°F17.2°C 75% 2.0 mph ESE3.2 kmh ESE 2.7 mph4.3 kmh 28.86 in977.3 mb 0.00 in0.0 mm 0.00 in0.0 mm 0.00 in0.0 mm
04:06 AM 71.2°F21.8°C 62.9°F17.2°C 75% 1.1 mph ESE1.8 kmh ESE 2.7 mph4.3 kmh 28.86 in977.3 mb 0.00 in0.0 mm 0.00 in0.0 mm 0.00 in0.0 mm
04:05 AM 71.2°F21.8°C 62.9°F17.2°C 75% 2.7 mph E4.3 kmh E 2.7 mph4.3 kmh 28.86 in977.3 mb 0.00 in0.0 mm 0.00 in0.0 mm 0.00 in0.0 mm
04:04 AM 71.2°F21.8°C 62.9°F17.2°C 75% Calm Calm -- 28.86 in977.3 mb 0.00 in0.0 mm 0.00 in0.0 mm 0.00 in0.0 mm
04:03 AM 71.2°F21.8°C 62.9°F17.2°C 75% Calm Calm -- 28.86 in977.3 mb 0.00 in0.0 mm 0.00 in0.0 mm 0.00 in0.0 mm
04:02 AM 71.2°F21.8°C 62.9°F17.2°C 75% Calm Calm -- 28.86 in977.3 mb 0.00 in0.0 mm 0.00 in0.0 mm 0.00 in0.0 mm
04:01 AM 71.2°F21.8°C 62.9°F17.2°C 75% Calm Calm -- 28.86 in977.3 mb 0.00 in0.0 mm 0.00 in0.0 mm 0.00 in0.0 mm
04:00 AM 71.2°F21.8°C 63.2°F17.3°C 76% Calm Calm -- 28.86 in977.3 mb 0.00 in0.0 mm 0.00 in0.0 mm 0.00 in0.0 mm
03:59 AM 71.2°F21.8°C 63.2°F17.3°C 76% Calm Calm -- 28.86 in977.3 mb 0.00 in0.0 mm 0.00 in0.0 mm 0.00 in0.0 mm
03:58 AM 71.2°F21.8°C 63.2°F17.3°C 76% Calm Calm -- 28.86 in977.3 mb 0.00 in0.0 mm 0.00 in0.0 mm 0.00 in0.0 mm
03:57 AM 71.2°F21.8°C 63.2°F17.3°C 76% Calm Calm -- 28.86 in977.3 mb 0.00 in0.0 mm 0.00 in0.0 mm 0.00 in0.0 mm
03:56 AM 71.4°F21.9°C 63.4°F17.4°C 76% Calm Calm -- 28.86 in977.3 mb 0.00 in0.0 mm 0.00 in0.0 mm 0.00 in0.0 mm
03:55 AM 71.2°F21.8°C 63.2°F17.3°C 76% Calm Calm 1.3 mph2.1 kmh 28.86 in977.3 mb 0.00 in0.0 mm 0.00 in0.0 mm 0.00 in0.0 mm
03:54 AM 71.2°F21.8°C 63.2°F17.3°C 76% Calm Calm 1.8 mph2.9 kmh 28.86 in977.3 mb 0.00 in0.0 mm 0.00 in0.0 mm 0.00 in0.0 mm
03:53 AM 71.4°F21.9°C 63.0°F17.2°C 75% Calm Calm 1.8 mph2.9 kmh 28.86 in977.3 mb 0.00 in0.0 mm 0.00 in0.0 mm 0.00 in0.0 mm
03:52 AM 71.4°F21.9°C 63.0°F17.2°C 75% Calm Calm 1.8 mph2.9 kmh 28.86 in977.3 mb 0.00 in0.0 mm 0.00 in0.0 mm 0.00 in0.0 mm
03:51 AM 71.4°F21.9°C 63.0°F17.2°C 75% Calm Calm 1.8 mph2.9 kmh 28.86 in977.3 mb 0.00 in0.0 mm 0.00 in0.0 mm 0.00 in0.0 mm
03:50 AM 71.4°F21.9°C 63.0°F17.2°C 75% Calm Calm 1.8 mph2.9 kmh 28.86 in977.3 mb 0.00 in0.0 mm 0.00 in0.0 mm 0.00 in0.0 mm
03:49 AM 71.2°F21.8°C 62.5°F16.9°C 74% Calm Calm 1.8 mph2.9 kmh 28.86 in977.3 mb 0.00 in0.0 mm 0.00 in0.0 mm 0.00 in0.0 mm
03:48 AM 71.2°F21.8°C 62.5°F16.9°C 74% Calm Calm 1.8 mph2.9 kmh 28.87 in977.7 mb 0.00 in0.0 mm 0.00 in0.0 mm 0.00 in0.0 mm
03:47 AM 71.2°F21.8°C 62.5°F16.9°C 74% Calm Calm 1.8 mph2.9 kmh 28.86 in977.3 mb 0.00 in0.0 mm 0.00 in0.0 mm 0.00 in0.0 mm
03:46 AM 71.2°F21.8°C 62.5°F16.9°C 74% Calm Calm 1.8 mph2.9 kmh 28.87 in977.7 mb 0.00 in0.0 mm 0.00 in0.0 mm 0.00 in0.0 mm
03:45 AM 71.2°F21.8°C 62.5°F16.9°C 74% 0.4 mph NNE0.6 kmh NNE 1.8 mph2.9 kmh 28.87 in977.7 mb 0.00 in0.0 mm 0.00 in0.0 mm 0.00 in0.0 mm
03:44 AM 71.4°F21.9°C 62.7°F17.1°C 74% Calm Calm -- 28.87 in977.7 mb 0.00 in0.0 mm 0.00 in0.0 mm 0.00 in0.0 mm
03:43 AM 71.2°F21.8°C 62.5°F16.9°C 74% Calm Calm -- 28.87 in977.7 mb 0.00 in0.0 mm 0.00 in0.0 mm 0.00 in0.0 mm
03:42 AM 71.2°F21.8°C 62.5°F16.9°C 74% Calm Calm -- 28.87 in977.7 mb 0.00 in0.0 mm 0.00 in0.0 mm 0.00 in0.0 mm
03:41 AM 71.2°F21.8°C 62.5°F16.9°C 74% Calm Calm -- 28.87 in977.7 mb 0.00 in0.0 mm 0.00 in0.0 mm 0.00 in0.0 mm
03:40 AM 71.4°F21.9°C 62.7°F17.1°C 74% Calm Calm -- 28.87 in977.7 mb 0.00 in0.0 mm 0.00 in0.0 mm 0.00 in0.0 mm
03:39 AM 71.4°F21.9°C 62.7°F17.1°C 74% Calm Calm -- 28.87 in977.7 mb 0.00 in0.0 mm 0.00 in0.0 mm 0.00 in0.0 mm
03:38 AM 71.4°F21.9°C 62.7°F17.1°C 74% Calm Calm -- 28.87 in977.7 mb 0.00 in0.0 mm 0.00 in0.0 mm 0.00 in0.0 mm
03:37 AM 71.4°F21.9°C 62.7°F17.1°C 74% Calm Calm -- 28.86 in977.3 mb 0.00 in0.0 mm 0.00 in0.0 mm 0.00 in0.0 mm
03:36 AM 71.4°F21.9°C 62.7°F17.1°C 74% Calm Calm -- 28.87 in977.7 mb 0.00 in0.0 mm 0.00 in0.0 mm 0.00 in0.0 mm
03:35 AM 71.4°F21.9°C 62.7°F17.1°C 74% Calm Calm -- 28.87 in977.7 mb 0.00 in0.0 mm 0.00 in0.0 mm 0.00 in0.0 mm
03:34 AM 71.4°F21.9°C 62.7°F17.1°C 74% Calm Calm -- 28.87 in977.7 mb 0.00 in0.0 mm 0.00 in0.0 mm 0.00 in0.0 mm
03:33 AM 71.4°F21.9°C 62.7°F17.1°C 74% Calm Calm -- 28.87 in977.7 mb 0.00 in0.0 mm 0.00 in0.0 mm 0.00 in0.0 mm
03:32 AM 71.4°F21.9°C 62.7°F17.1°C 74% Calm Calm -- 28.87 in977.7 mb 0.00 in0.0 mm 0.00 in0.0 mm 0.00 in0.0 mm
03:31 AM 71.4°F21.9°C 62.7°F17.1°C 74% Calm Calm -- 28.87 in977.7 mb 0.00 in0.0 mm 0.00 in0.0 mm 0.00 in0.0 mm
03:30 AM 71.4°F21.9°C 62.7°F17.1°C 74% Calm Calm -- 28.87 in977.7 mb 0.00 in0.0 mm 0.00 in0.0 mm 0.00 in0.0 mm
03:29 AM 71.4°F21.9°C 62.3°F16.8°C 73% Calm Calm -- 28.87 in977.7 mb 0.00 in0.0 mm 0.00 in0.0 mm 0.00 in0.0 mm
03:28 AM 71.4°F21.9°C 62.3°F16.8°C 73% Calm Calm -- 28.87 in977.7 mb 0.00 in0.0 mm 0.00 in0.0 mm 0.00 in0.0 mm
03:27 AM 71.4°F21.9°C 62.3°F16.8°C 73% Calm Calm -- 28.87 in977.7 mb 0.00 in0.0 mm 0.00 in0.0 mm 0.00 in0.0 mm
03:26 AM 71.4°F21.9°C 62.3°F16.8°C 73% Calm Calm -- 28.87 in977.7 mb 0.00 in0.0 mm 0.00 in0.0 mm 0.00 in0.0 mm
03:25 AM 71.4°F21.9°C 62.3°F16.8°C 73% Calm Calm 2.9 mph4.7 kmh 28.87 in977.7 mb 0.00 in0.0 mm 0.00 in0.0 mm 0.00 in0.0 mm
03:24 AM 71.4°F21.9°C 62.3°F16.8°C 73% Calm Calm 2.9 mph4.7 kmh 28.87 in977.7 mb 0.00 in0.0 mm 0.00 in0.0 mm 0.00 in0.0 mm
03:23 AM 71.4°F21.9°C 62.3°F16.8°C 73% Calm Calm 2.9 mph4.7 kmh 28.87 in977.7 mb 0.00 in0.0 mm 0.00 in0.0 mm 0.00 in0.0 mm
03:22 AM 71.4°F21.9°C 62.3°F16.8°C 73% Calm Calm 2.9 mph4.7 kmh 28.87 in977.7 mb 0.00 in0.0 mm 0.00 in0.0 mm 0.00 in0.0 mm
03:21 AM 71.4°F21.9°C 62.3°F16.8°C 73% Calm Calm 2.9 mph4.7 kmh 28.87 in977.7 mb 0.00 in0.0 mm 0.00 in0.0 mm 0.00 in0.0 mm
03:20 AM 71.4°F21.9°C 62.3°F16.8°C 73% Calm Calm 2.9 mph4.7 kmh 28.87 in977.7 mb 0.00 in0.0 mm 0.00 in0.0 mm 0.00 in0.0 mm
03:19 AM 71.4°F21.9°C 62.3°F16.8°C 73% Calm Calm 2.9 mph4.7 kmh 28.87 in977.7 mb 0.00 in0.0 mm 0.00 in0.0 mm 0.00 in0.0 mm
03:18 AM 71.4°F21.9°C 62.3°F16.8°C 73% Calm Calm 2.9 mph4.7 kmh 28.87 in977.7 mb 0.00 in0.0 mm 0.00 in0.0 mm 0.00 in0.0 mm
03:17 AM 71.6°F22.0°C 62.1°F16.7°C 72% Calm Calm 2.9 mph4.7 kmh 28.87 in977.7 mb 0.00 in0.0 mm 0.00 in0.0 mm 0.00 in0.0 mm
03:16 AM 71.6°F22.0°C 61.9°F16.6°C 72% Calm Calm 2.9 mph4.7 kmh 28.87 in977.7 mb 0.00 in0.0 mm 0.00 in0.0 mm 0.00 in0.0 mm
03:15 AM 71.4°F21.9°C 61.9°F16.6°C 72% Calm Calm -- 28.87 in977.7 mb 0.00 in0.0 mm 0.00 in0.0 mm 0.00 in0.0 mm
03:14 AM 71.6°F22.0°C 62.1°F16.7°C 72% Calm Calm -- 28.87 in977.7 mb 0.00 in0.0 mm 0.00 in0.0 mm 0.00 in0.0 mm
03:13 AM 71.6°F22.0°C 62.1°F16.7°C 72% Calm Calm -- 28.87 in977.7 mb 0.00 in0.0 mm 0.00 in0.0 mm 0.00 in0.0 mm
03:12 AM 71.6°F22.0°C 62.5°F16.9°C 72% Calm Calm -- 28.87 in977.7 mb 0.00 in0.0 mm 0.00 in0.0 mm 0.00 in0.0 mm
03:11 AM 71.6°F22.0°C 62.5°F16.9°C 73% Calm Calm -- 28.87 in977.7 mb 0.00 in0.0 mm 0.00 in0.0 mm 0.00 in0.0 mm
03:10 AM 71.8°F22.1°C 62.7°F17.1°C 73% Calm Calm -- 28.87 in977.7 mb 0.00 in0.0 mm 0.00 in0.0 mm 0.00 in0.0 mm
03:09 AM 71.8°F22.1°C 62.7°F17.1°C 73% Calm Calm -- 28.87 in977.7 mb 0.00 in0.0 mm 0.00 in0.0 mm 0.00 in0.0 mm
03:08 AM 71.8°F22.1°C 62.7°F17.1°C 73% Calm Calm -- 28.87 in977.7 mb 0.00 in0.0 mm 0.00 in0.0 mm 0.00 in0.0 mm
03:07 AM 71.6°F22.0°C 62.1°F16.7°C 72% Calm Calm -- 28.87 in977.7 mb 0.00 in0.0 mm 0.00 in0.0 mm 0.00 in0.0 mm
03:06 AM 71.8°F22.1°C 62.3°F16.8°C 72% Calm Calm -- 28.87 in977.7 mb 0.00 in0.0 mm 0.00 in0.0 mm 0.00 in0.0 mm
03:05 AM 71.8°F22.1°C 62.3°F16.8°C 72% Calm Calm -- 28.87 in977.7 mb 0.00 in0.0 mm 0.00 in0.0 mm 0.00 in0.0 mm
03:04 AM 71.8°F22.1°C 62.3°F16.8°C 72% Calm Calm -- 28.87 in977.7 mb 0.00 in0.0 mm 0.00 in0.0 mm 0.00 in0.0 mm
03:03 AM 71.8°F22.1°C 62.3°F16.8°C 72% Calm Calm -- 28.87 in977.7 mb 0.00 in0.0 mm 0.00 in0.0 mm 0.00 in0.0 mm
03:02 AM 71.8°F22.1°C 62.3°F16.8°C 72% Calm Calm -- 28.88 in978.0 mb 0.00 in0.0 mm 0.00 in0.0 mm 0.00 in0.0 mm
03:01 AM 71.8°F22.1°C 62.3°F16.8°C 72% Calm Calm -- 28.87 in977.7 mb 0.00 in0.0 mm 0.00 in0.0 mm 0.00 in0.0 mm
03:00 AM 71.8°F22.1°C 62.3°F16.8°C 72% Calm Calm -- 28.87 in977.7 mb 0.00 in0.0 mm 0.00 in0.0 mm 0.00 in0.0 mm
02:59 AM 71.8°F22.1°C 62.3°F16.8°C 72% Calm Calm -- 28.87 in977.7 mb 0.00 in0.0 mm 0.00 in0.0 mm 0.00 in0.0 mm
02:58 AM 71.8°F22.1°C 62.3°F16.8°C 72% Calm Calm -- 28.87 in977.7 mb 0.00 in0.0 mm 0.00 in0.0 mm 0.00 in0.0 mm
02:57 AM 71.8°F22.1°C 62.3°F16.8°C 72% Calm Calm -- 28.87 in977.7 mb 0.00 in0.0 mm 0.00 in0.0 mm 0.00 in0.0 mm
02:56 AM 71.6°F22.0°C 62.1°F16.7°C 72% Calm Calm -- 28.87 in977.7 mb 0.00 in0.0 mm 0.00 in0.0 mm 0.00 in0.0 mm
02:55 AM 71.8°F22.1°C 62.3°F16.8°C 72% Calm Calm -- 28.87 in977.7 mb 0.00 in0.0 mm 0.00 in0.0 mm 0.00 in0.0 mm
02:54 AM 71.8°F22.1°C 62.3°F16.8°C 72% Calm Calm -- 28.87 in977.7 mb 0.00 in0.0 mm 0.00 in0.0 mm 0.00 in0.0 mm
02:53 AM 71.6°F22.0°C 62.1°F16.7°C 72% Calm Calm -- 28.87 in977.7 mb 0.00 in0.0 mm 0.00 in0.0 mm 0.00 in0.0 mm
02:52 AM 71.8°F22.1°C 62.3°F16.8°C 72% Calm Calm -- 28.87 in977.7 mb 0.00 in0.0 mm 0.00 in0.0 mm 0.00 in0.0 mm
02:51 AM 71.6°F22.0°C 62.1°F16.7°C 72% Calm Calm -- 28.87 in977.7 mb 0.00 in0.0 mm 0.00 in0.0 mm 0.00 in0.0 mm
02:50 AM 71.6°F22.0°C 62.1°F16.7°C 72% Calm Calm -- 28.87 in977.7 mb 0.00 in0.0 mm 0.00 in0.0 mm 0.00 in0.0 mm
02:49 AM 71.6°F22.0°C 62.1°F16.7°C 72% Calm Calm -- 28.87 in977.7 mb 0.00 in0.0 mm 0.00 in0.0 mm 0.00 in0.0 mm
02:48 AM 71.6°F22.0°C 62.5°F16.9°C 73% Calm Calm -- 28.87 in977.7 mb 0.00 in0.0 mm 0.00 in0.0 mm 0.00 in0.0 mm
02:47 AM 71.4°F21.9°C 62.3°F16.8°C 73% Calm Calm -- 28.87 in977.7 mb 0.00 in0.0 mm 0.00 in0.0 mm 0.00 in0.0 mm
02:46 AM 71.4°F21.9°C 62.3°F16.8°C 73% Calm Calm -- 28.87 in977.7 mb 0.00 in0.0 mm 0.00 in0.0 mm 0.00 in0.0 mm
02:45 AM 71.4°F21.9°C 62.3°F16.8°C 73% Calm Calm -- 28.87 in977.7 mb 0.00 in0.0 mm 0.00 in0.0 mm 0.00 in0.0 mm
02:44 AM 71.4°F21.9°C 62.3°F16.8°C 73% Calm Calm -- 28.87 in977.7 mb 0.00 in0.0 mm 0.00 in0.0 mm 0.00 in0.0 mm
02:43 AM 71.4°F21.9°C 62.3°F16.8°C 73% Calm Calm -- 28.87 in977.7 mb 0.00 in0.0 mm 0.00 in0.0 mm 0.00 in0.0 mm
02:42 AM 71.4°F21.9°C 62.3°F16.8°C 73% Calm Calm -- 28.87 in977.7 mb 0.00 in0.0 mm 0.00 in0.0 mm 0.00 in0.0 mm
02:41 AM 71.4°F21.9°C 62.3°F16.8°C 73% Calm Calm -- 28.87 in977.7 mb 0.00 in0.0 mm 0.00 in0.0 mm 0.00 in0.0 mm
02:40 AM 71.4°F21.9°C 62.7°F17.1°C 74% Calm Calm -- 28.87 in977.7 mb 0.00 in0.0 mm 0.00 in0.0 mm 0.00 in0.0 mm
02:39 AM 71.4°F21.9°C 62.7°F17.1°C 74% Calm Calm -- 28.87 in977.7 mb 0.00 in0.0 mm 0.00 in0.0 mm 0.00 in0.0 mm
02:38 AM 71.4°F21.9°C 62.7°F17.1°C 74% Calm Calm -- 28.88 in978.0 mb 0.00 in0.0 mm 0.00 in0.0 mm 0.00 in0.0 mm
02:37 AM 71.4°F21.9°C 62.7°F17.1°C 74% Calm Calm -- 28.87 in977.7 mb 0.00 in0.0 mm 0.00 in0.0 mm 0.00 in0.0 mm
02:36 AM 71.4°F21.9°C 62.3°F16.8°C 73% Calm Calm -- 28.88 in978.0 mb 0.00 in0.0 mm 0.00 in0.0 mm 0.00 in0.0 mm
02:35 AM 71.4°F21.9°C 62.3°F16.8°C 73% Calm Calm -- 28.88 in978.0 mb 0.00 in0.0 mm 0.00 in0.0 mm 0.00 in0.0 mm
02:34 AM 71.4°F21.9°C 62.3°F16.8°C 73% Calm Calm -- 28.87 in977.7 mb 0.00 in0.0 mm 0.00 in0.0 mm 0.00 in0.0 mm
02:33 AM 71.4°F21.9°C 62.3°F16.8°C 73% Calm Calm 3.1 mph5.0 kmh 28.88 in978.0 mb 0.00 in0.0 mm 0.00 in0.0 mm 0.00 in0.0 mm
02:32 AM 71.6°F22.0°C 62.9°F17.2°C 74% Calm Calm 3.1 mph5.0 kmh 28.87 in977.7 mb 0.00 in0.0 mm 0.00 in0.0 mm 0.00 in0.0 mm
02:31 AM 71.6°F22.0°C 62.5°F16.9°C 73% Calm Calm 3.4 mph5.5 kmh 28.87 in977.7 mb 0.00 in0.0 mm 0.00 in0.0 mm 0.00 in0.0 mm
02:30 AM 71.8°F22.1°C 62.7°F17.1°C 73% Calm Calm 3.4 mph5.5 kmh 28.87 in977.7 mb 0.00 in0.0 mm 0.00 in0.0 mm 0.00 in0.0 mm
02:29 AM 71.8°F22.1°C 62.7°F17.1°C 73% Calm Calm 3.4 mph5.5 kmh 28.87 in977.7 mb 0.00 in0.0 mm 0.00 in0.0 mm 0.00 in0.0 mm
02:28 AM 71.8°F22.1°C 62.7°F17.1°C 73% Calm Calm 3.4 mph5.5 kmh 28.87 in977.7 mb 0.00 in0.0 mm 0.00 in0.0 mm 0.00 in0.0 mm
02:27 AM 71.8°F22.1°C 62.7°F17.1°C 73% Calm Calm 3.4 mph5.5 kmh 28.87 in977.7 mb 0.00 in0.0 mm 0.00 in0.0 mm 0.00 in0.0 mm
02:26 AM 71.8°F22.1°C 62.7°F17.1°C 73% Calm Calm 3.4 mph5.5 kmh 28.87 in977.7 mb 0.00 in0.0 mm 0.00 in0.0 mm 0.00 in0.0 mm
02:25 AM 72.0°F22.2°C 62.8°F17.1°C 73% Calm Calm 3.4 mph5.5 kmh 28.87 in977.7 mb 0.00 in0.0 mm 0.00 in0.0 mm 0.00 in0.0 mm
02:24 AM 72.0°F22.2°C 62.8°F17.1°C 73% Calm Calm 3.4 mph5.5 kmh 28.87 in977.7 mb 0.00 in0.0 mm 0.00 in0.0 mm 0.00 in0.0 mm
02:23 AM 72.1°F22.3°C 63.0°F17.2°C 73% Calm Calm 3.4 mph5.5 kmh 28.87 in977.7 mb 0.00 in0.0 mm 0.00 in0.0 mm 0.00 in0.0 mm
02:22 AM 72.1°F22.3°C 63.0°F17.2°C 73% 2.0 mph N3.2 kmh N 3.4 mph5.5 kmh 28.87 in977.7 mb 0.00 in0.0 mm 0.00 in0.0 mm 0.00 in0.0 mm
02:21 AM 72.1°F22.3°C 63.0°F17.2°C 73% 3.4 mph N5.5 kmh N 3.4 mph5.5 kmh 28.88 in978.0 mb 0.00 in0.0 mm 0.00 in0.0 mm 0.00 in0.0 mm
02:20 AM 72.1°F22.3°C 63.0°F17.2°C 73% Calm Calm -- 28.88 in978.0 mb 0.00 in0.0 mm 0.00 in0.0 mm 0.00 in0.0 mm
02:19 AM 72.1°F22.3°C 63.0°F17.2°C 73% Calm Calm -- 28.88 in978.0 mb 0.00 in0.0 mm 0.00 in0.0 mm 0.00 in0.0 mm
02:18 AM 72.3°F22.4°C 63.2°F17.3°C 73% Calm Calm -- 28.88 in978.0 mb 0.00 in0.0 mm 0.00 in0.0 mm 0.00 in0.0 mm
02:17 AM 72.3°F22.4°C 62.8°F17.1°C 72% Calm Calm -- 28.88 in978.0 mb 0.00 in0.0 mm 0.00 in0.0 mm 0.00 in0.0 mm
02:16 AM 72.3°F22.4°C 62.8°F17.1°C 72% Calm Calm -- 28.88 in978.0 mb 0.00 in0.0 mm 0.00 in0.0 mm 0.00 in0.0 mm
02:15 AM 72.3°F22.4°C 62.8°F17.1°C 72% Calm Calm -- 28.88 in978.0 mb 0.00 in0.0 mm 0.00 in0.0 mm 0.00 in0.0 mm
02:14 AM 72.3°F22.4°C 62.8°F17.1°C 72% Calm Calm -- 28.87 in977.7 mb 0.00 in0.0 mm 0.00 in0.0 mm 0.00 in0.0 mm
02:13 AM 72.3°F22.4°C 62.8°F17.1°C 72% Calm Calm -- 28.87 in977.7 mb 0.00 in0.0 mm 0.00 in0.0 mm 0.00 in0.0 mm
02:12 AM 72.5°F22.5°C 63.0°F17.2°C 72% Calm Calm -- 28.87 in977.7 mb 0.00 in0.0 mm 0.00 in0.0 mm 0.00 in0.0 mm
02:11 AM 72.5°F22.5°C 63.0°F17.2°C 72% Calm Calm -- 28.87 in977.7 mb 0.00 in0.0 mm 0.00 in0.0 mm 0.00 in0.0 mm
02:10 AM 72.5°F22.5°C 63.0°F17.2°C 72% Calm Calm -- 28.87 in977.7 mb 0.00 in0.0 mm 0.00 in0.0 mm 0.00 in0.0 mm
02:09 AM 72.5°F22.5°C 63.0°F17.2°C 72% Calm Calm -- 28.87 in977.7 mb 0.00 in0.0 mm 0.00 in0.0 mm 0.00 in0.0 mm
02:08 AM 72.5°F22.5°C 63.0°F17.2°C 72% Calm Calm -- 28.88 in978.0 mb 0.00 in0.0 mm 0.00 in0.0 mm 0.00 in0.0 mm
02:07 AM 72.5°F22.5°C 63.0°F17.2°C 72% Calm Calm -- 28.87 in977.7 mb 0.00 in0.0 mm 0.00 in0.0 mm 0.00 in0.0 mm
02:06 AM 72.5°F22.5°C 63.0°F17.2°C 72% Calm Calm -- 28.88 in978.0 mb 0.00 in0.0 mm 0.00 in0.0 mm 0.00 in0.0 mm
02:05 AM 72.7°F22.6°C 63.2°F17.3°C 72% Calm Calm -- 28.88 in978.0 mb 0.00 in0.0 mm 0.00 in0.0 mm 0.00 in0.0 mm
02:04 AM 72.7°F22.6°C 63.2°F17.3°C 72% Calm Calm 3.8 mph6.1 kmh 28.88 in978.0 mb 0.00 in0.0 mm 0.00 in0.0 mm 0.00 in0.0 mm
02:03 AM 72.5°F22.5°C 63.0°F17.2°C 72% Calm Calm 4.9 mph7.9 kmh 28.88 in978.0 mb 0.00 in0.0 mm 0.00 in0.0 mm 0.00 in0.0 mm
02:02 AM 72.7°F22.6°C 63.2°F17.3°C 72% Calm Calm 11.4 mph18.3 kmh 28.88 in978.0 mb 0.00 in0.0 mm 0.00 in0.0 mm 0.00 in0.0 mm
02:01 AM 72.7°F22.6°C 63.2°F17.3°C 72% Calm Calm 11.4 mph18.3 kmh 28.88 in978.0 mb 0.00 in0.0 mm 0.00 in0.0 mm 0.00 in0.0 mm
02:00 AM 72.7°F22.6°C 63.2°F17.3°C 72% Calm Calm 11.4 mph18.3 kmh 28.88 in978.0 mb 0.00 in0.0 mm 0.00 in0.0 mm 0.00 in0.0 mm
01:59 AM 72.7°F22.6°C 63.2°F17.3°C 72% Calm Calm 11.4 mph18.3 kmh 28.88 in978.0 mb 0.00 in0.0 mm 0.00 in0.0 mm 0.00 in0.0 mm
01:58 AM 72.7°F22.6°C 63.2°F17.3°C 72% Calm Calm 11.4 mph18.3 kmh 28.88 in978.0 mb 0.00 in0.0 mm 0.00 in0.0 mm 0.00 in0.0 mm
01:57 AM 72.7°F22.6°C 63.2°F17.3°C 72% Calm Calm 11.4 mph18.3 kmh 28.88 in978.0 mb 0.00 in0.0 mm 0.00 in0.0 mm 0.00 in0.0 mm
01:56 AM 72.7°F22.6°C 63.2°F17.3°C 72% Calm Calm 11.4 mph18.3 kmh 28.89 in978.3 mb 0.00 in0.0 mm 0.00 in0.0 mm 0.00 in0.0 mm
01:55 AM 72.9°F22.7°C 63.4°F17.4°C 72% Calm Calm 11.4 mph18.3 kmh 28.89 in978.3 mb 0.00 in0.0 mm 0.00 in0.0 mm 0.00 in0.0 mm
01:54 AM 72.9°F22.7°C 63.4°F17.4°C 72% Calm Calm 11.4 mph18.3 kmh 28.89 in978.3 mb 0.00 in0.0 mm 0.00 in0.0 mm 0.00 in0.0 mm
01:53 AM 72.9°F22.7°C 63.4°F17.4°C 72% Calm Calm 11.4 mph18.3 kmh 28.89 in978.3 mb 0.00 in0.0 mm 0.00 in0.0 mm 0.00 in0.0 mm
01:52 AM 72.9°F22.7°C 63.4°F17.4°C 72% 5.8 mph SSW9.3 kmh SSW 7.6 mph12.2 kmh 28.89 in978.3 mb 0.00 in0.0 mm 0.00 in0.0 mm 0.00 in0.0 mm
01:51 AM 72.9°F22.7°C 63.4°F17.4°C 72% 1.6 mph SSW2.6 kmh SSW 7.6 mph12.2 kmh 28.89 in978.3 mb 0.00 in0.0 mm 0.00 in0.0 mm 0.00 in0.0 mm
01:50 AM 72.9°F22.7°C 63.4°F17.4°C 72% 2.7 mph SSW4.3 kmh SSW 7.6 mph12.2 kmh 28.89 in978.3 mb 0.00 in0.0 mm 0.00 in0.0 mm 0.00 in0.0 mm
01:49 AM 72.9°F22.7°C 63.4°F17.4°C 72% 4.5 mph S7.2 kmh S 7.6 mph12.2 kmh 28.89 in978.3 mb 0.00 in0.0 mm 0.00 in0.0 mm 0.00 in0.0 mm
01:48 AM 73.0°F22.8°C 63.5°F17.5°C 72% 4.7 mph S7.6 kmh S 6.3 mph10.1 kmh 28.88 in978.0 mb 0.00 in0.0 mm 0.00 in0.0 mm 0.00 in0.0 mm
01:47 AM 73.0°F22.8°C 63.9°F17.7°C 73% Calm Calm 6.3 mph10.1 kmh 28.88 in978.0 mb 0.00 in0.0 mm 0.00 in0.0 mm 0.00 in0.0 mm
01:46 AM 73.0°F22.8°C 63.9°F17.7°C 73% 2.9 mph SSE4.7 kmh SSE 6.3 mph10.1 kmh 28.88 in978.0 mb 0.00 in0.0 mm 0.00 in0.0 mm 0.00 in0.0 mm
01:45 AM 73.0°F22.8°C 63.9°F17.7°C 73% 2.0 mph SSE3.2 kmh SSE 6.3 mph10.1 kmh 28.88 in978.0 mb 0.00 in0.0 mm 0.00 in0.0 mm 0.00 in0.0 mm
01:44 AM 73.0°F22.8°C 63.9°F17.7°C 73% 2.7 mph SE4.3 kmh SE 6.3 mph10.1 kmh 28.88 in978.0 mb 0.00 in0.0 mm 0.00 in0.0 mm 0.00 in0.0 mm
01:43 AM 73.0°F22.8°C 63.9°F17.7°C 73% 5.8 mph E9.3 kmh E 6.3 mph10.1 kmh 28.88 in978.0 mb 0.00 in0.0 mm 0.00 in0.0 mm 0.00 in0.0 mm
01:42 AM 73.0°F22.8°C 63.9°F17.7°C 73% 2.5 mph ENE4.0 kmh ENE 4.0 mph6.4 kmh 28.87 in977.7 mb 0.00 in0.0 mm 0.00 in0.0 mm 0.00 in0.0 mm
01:41 AM 73.0°F22.8°C 63.9°F17.7°C 73% 2.9 mph ENE4.7 kmh ENE 4.0 mph6.4 kmh 28.87 in977.7 mb 0.00 in0.0 mm 0.00 in0.0 mm 0.00 in0.0 mm
01:40 AM 73.0°F22.8°C 63.9°F17.7°C 73% 2.5 mph NE4.0 kmh NE 4.0 mph6.4 kmh 28.87 in977.7 mb 0.00 in0.0 mm 0.00 in0.0 mm 0.00 in0.0 mm
01:39 AM 73.0°F22.8°C 63.9°F17.7°C 73% 1.6 mph NE2.6 kmh NE 4.0 mph6.4 kmh 28.87 in977.7 mb 0.00 in0.0 mm 0.00 in0.0 mm 0.00 in0.0 mm
01:38 AM 73.2°F22.9°C 64.1°F17.8°C 73% Calm Calm 4.0 mph6.4 kmh 28.87 in977.7 mb 0.00 in0.0 mm 0.00 in0.0 mm 0.00 in0.0 mm
01:37 AM 73.2°F22.9°C 64.1°F17.8°C 73% Calm Calm 4.0 mph6.4 kmh 28.87 in977.7 mb 0.00 in0.0 mm 0.00 in0.0 mm 0.00 in0.0 mm
01:36 AM 73.2°F22.9°C 64.1°F17.8°C 73% Calm Calm 4.0 mph6.4 kmh 28.87 in977.7 mb 0.00 in0.0 mm 0.00 in0.0 mm 0.00 in0.0 mm
01:35 AM 73.2°F22.9°C 64.1°F17.8°C 73% Calm Calm 4.0 mph6.4 kmh 28.87 in977.7 mb 0.00 in0.0 mm 0.00 in0.0 mm 0.00 in0.0 mm
01:34 AM 73.2°F22.9°C 64.1°F17.8°C 73% Calm Calm 4.3 mph6.9 kmh 28.87 in977.7 mb 0.00 in0.0 mm 0.00 in0.0 mm 0.00 in0.0 mm
01:33 AM 73.2°F22.9°C 64.1°F17.8°C 73% 0.9 mph SW1.4 kmh SW 7.2 mph11.6 kmh 28.87 in977.7 mb 0.00 in0.0 mm 0.00 in0.0 mm 0.00 in0.0 mm
01:32 AM 73.2°F22.9°C 64.1°F17.8°C 73% 0.2 mph SW0.3 kmh SW 7.2 mph11.6 kmh 28.87 in977.7 mb 0.00 in0.0 mm 0.00 in0.0 mm 0.00 in0.0 mm
01:31 AM 73.2°F22.9°C 64.1°F17.8°C 73% Calm Calm 7.2 mph11.6 kmh 28.87 in977.7 mb 0.00 in0.0 mm 0.00 in0.0 mm 0.00 in0.0 mm
01:30 AM 73.2°F22.9°C 64.1°F17.8°C 73% 1.6 mph SW2.6 kmh SW 7.2 mph11.6 kmh 28.87 in977.7 mb 0.00 in0.0 mm 0.00 in0.0 mm 0.00 in0.0 mm
01:29 AM 73.2°F22.9°C 64.1°F17.8°C 73% Calm Calm 7.2 mph11.6 kmh 28.87 in977.7 mb 0.00 in0.0 mm 0.00 in0.0 mm 0.00 in0.0 mm
01:28 AM 73.2°F22.9°C 64.1°F17.8°C 73% Calm Calm 7.2 mph11.6 kmh 28.88 in978.0 mb 0.00 in0.0 mm 0.00 in0.0 mm 0.00 in0.0 mm
01:27 AM 73.2°F22.9°C 64.1°F17.8°C 73% Calm Calm 7.2 mph11.6 kmh 28.88 in978.0 mb 0.00 in0.0 mm 0.00 in0.0 mm 0.00 in0.0 mm
01:26 AM 73.2°F22.9°C 64.1°F17.8°C 73% Calm Calm 7.2 mph11.6 kmh 28.88 in978.0 mb 0.00 in0.0 mm 0.00 in0.0 mm 0.00 in0.0 mm
01:25 AM 73.2°F22.9°C 64.1°F17.8°C 73% Calm Calm 11.0 mph17.7 kmh 28.88 in978.0 mb 0.00 in0.0 mm 0.00 in0.0 mm 0.00 in0.0 mm
01:24 AM 73.4°F23.0°C 64.7°F18.2°C 73% 4.3 mph SE6.9 kmh SE 11.0 mph17.7 kmh 28.88 in978.0 mb 0.00 in0.0 mm 0.00 in0.0 mm 0.00 in0.0 mm
01:23 AM 73.4°F23.0°C 64.7°F18.2°C 74% Calm Calm 22.1 mph35.6 kmh 28.88 in978.0 mb 0.00 in0.0 mm 0.00 in0.0 mm 0.00 in0.0 mm
01:22 AM 73.4°F23.0°C 64.7°F18.2°C 74% Calm Calm 22.1 mph35.6 kmh 28.88 in978.0 mb 0.00 in0.0 mm 0.00 in0.0 mm 0.00 in0.0 mm
01:21 AM 73.6°F23.1°C 64.4°F18.0°C 73% Calm Calm 22.1 mph35.6 kmh 28.88 in978.0 mb 0.00 in0.0 mm 0.00 in0.0 mm 0.00 in0.0 mm
01:20 AM 73.6°F23.1°C 64.4°F18.0°C 73% Calm Calm 22.1 mph35.6 kmh 28.88 in978.0 mb 0.00 in0.0 mm 0.00 in0.0 mm 0.00 in0.0 mm
01:19 AM 73.6°F23.1°C 64.4°F18.0°C 73% Calm Calm 22.1 mph35.6 kmh 28.88 in978.0 mb 0.00 in0.0 mm 0.00 in0.0 mm 0.00 in0.0 mm
01:18 AM 73.6°F23.1°C 64.1°F17.8°C 72% Calm Calm 22.1 mph35.6 kmh 28.87 in977.7 mb 0.00 in0.0 mm 0.00 in0.0 mm 0.00 in0.0 mm
01:17 AM 73.6°F23.1°C 64.1°F17.8°C 72% Calm Calm 22.1 mph35.6 kmh 28.86 in977.3 mb 0.00 in0.0 mm 0.00 in0.0 mm 0.00 in0.0 mm
01:16 AM 73.6°F23.1°C 63.7°F17.6°C 71% Calm Calm 22.1 mph35.6 kmh 28.86 in977.3 mb 0.00 in0.0 mm 0.00 in0.0 mm 0.00 in0.0 mm
01:15 AM 73.6°F23.1°C 63.7°F17.6°C 71% 11.0 mph SE17.7 kmh SE 22.1 mph35.6 kmh 28.86 in977.3 mb 0.00 in0.0 mm 0.00 in0.0 mm 0.00 in0.0 mm
01:14 AM 73.6°F23.1°C 63.7°F17.6°C 71% 22.1 mph SSE35.6 kmh SSE 25.7 mph41.4 kmh 28.86 in977.3 mb 0.00 in0.0 mm 0.00 in0.0 mm 0.00 in0.0 mm
01:13 AM 73.8°F23.2°C 63.8°F17.7°C 71% 12.5 mph S20.1 kmh S 25.7 mph41.4 kmh 28.86 in977.3 mb 0.00 in0.0 mm 0.00 in0.0 mm 0.00 in0.0 mm
01:12 AM 73.8°F23.2°C 63.8°F17.7°C 71% 9.8 mph S15.8 kmh S 25.7 mph41.4 kmh 28.86 in977.3 mb 0.00 in0.0 mm 0.00 in0.0 mm 0.00 in0.0 mm
01:11 AM 73.8°F23.2°C 63.8°F17.7°C 71% 2.9 mph S4.7 kmh S 25.7 mph41.4 kmh 28.86 in977.3 mb 0.00 in0.0 mm 0.00 in0.0 mm 0.00 in0.0 mm
01:10 AM 73.9°F23.3°C 64.0°F17.8°C 71% Calm Calm 30.6 mph49.2 kmh 28.86 in977.3 mb 0.00 in0.0 mm 0.00 in0.0 mm 0.00 in0.0 mm
01:09 AM 73.9°F23.3°C 64.0°F17.8°C 71% 2.0 mph S3.2 kmh S 30.6 mph49.2 kmh 28.86 in977.3 mb 0.00 in0.0 mm 0.00 in0.0 mm 0.00 in0.0 mm
01:08 AM 73.9°F23.3°C 63.6°F17.6°C 70% 6.3 mph S10.1 kmh S 30.6 mph49.2 kmh 28.86 in977.3 mb 0.00 in0.0 mm 0.00 in0.0 mm 0.00 in0.0 mm
01:07 AM 73.9°F23.3°C 64.0°F17.8°C 71% 2.0 mph S3.2 kmh S 30.6 mph49.2 kmh 28.86 in977.3 mb 0.00 in0.0 mm 0.00 in0.0 mm 0.00 in0.0 mm
01:06 AM 73.9°F23.3°C 64.0°F17.8°C 71% 11.0 mph S17.7 kmh S 30.6 mph49.2 kmh 28.86 in977.3 mb 0.00 in0.0 mm 0.00 in0.0 mm 0.00 in0.0 mm
01:05 AM 73.9°F23.3°C 64.0°F17.8°C 71% 14.1 mph S22.7 kmh S 30.6 mph49.2 kmh 28.86 in977.3 mb 0.00 in0.0 mm 0.00 in0.0 mm 0.00 in0.0 mm
01:04 AM 73.9°F23.3°C 64.0°F17.8°C 71% 25.1 mph S40.4 kmh S 30.6 mph49.2 kmh 28.86 in977.3 mb 0.00 in0.0 mm 0.00 in0.0 mm 0.00 in0.0 mm
01:03 AM 73.9°F23.3°C 64.0°F17.8°C 71% 24.2 mph S38.9 kmh S 33.3 mph53.6 kmh 28.86 in977.3 mb 0.00 in0.0 mm 0.00 in0.0 mm 0.00 in0.0 mm
01:02 AM 74.1°F23.4°C 64.2°F17.9°C 71% 19.2 mph S30.9 kmh S 33.3 mph53.6 kmh 28.86 in977.3 mb 0.00 in0.0 mm 0.00 in0.0 mm 0.00 in0.0 mm
01:01 AM 74.1°F23.4°C 64.2°F17.9°C 71% 21.7 mph NNW34.9 kmh NNW 33.3 mph53.6 kmh 28.86 in977.3 mb 0.00 in0.0 mm 0.00 in0.0 mm 0.00 in0.0 mm
01:00 AM 74.1°F23.4°C 64.2°F17.9°C 71% 26.8 mph N43.1 kmh N 33.3 mph53.6 kmh 28.87 in977.7 mb 0.00 in0.0 mm 0.00 in0.0 mm 0.00 in0.0 mm
12:59 AM 74.3°F23.5°C 64.3°F17.9°C 71% 17.4 mph N28.0 kmh N 33.3 mph53.6 kmh 28.88 in978.0 mb 0.00 in0.0 mm 0.00 in0.0 mm 0.00 in0.0 mm
12:58 AM 74.3°F23.5°C 64.3°F17.9°C 71% 11.2 mph NNW18.0 kmh NNW 33.3 mph53.6 kmh 28.89 in978.3 mb 0.00 in0.0 mm 0.00 in0.0 mm 0.00 in0.0 mm
12:57 AM 74.3°F23.5°C 64.3°F17.9°C 71% 3.8 mph N6.1 kmh N 33.3 mph53.6 kmh 28.90 in978.7 mb 0.00 in0.0 mm 0.00 in0.0 mm 0.00 in0.0 mm
12:56 AM 74.5°F23.6°C 64.5°F18.1°C 71% Calm Calm 33.3 mph53.6 kmh 28.90 in978.7 mb 0.00 in0.0 mm 0.00 in0.0 mm 0.00 in0.0 mm
12:55 AM 74.5°F23.6°C 64.5°F18.1°C 71% 11.4 mph N18.3 kmh N 33.3 mph53.6 kmh 28.90 in978.7 mb 0.00 in0.0 mm 0.00 in0.0 mm 0.00 in0.0 mm
12:54 AM 74.5°F23.6°C 64.5°F18.1°C 71% 33.3 mph N53.6 kmh N 33.3 mph53.6 kmh 28.91 in979.0 mb 0.00 in0.0 mm 0.00 in0.0 mm 0.00 in0.0 mm
12:53 AM 74.5°F23.6°C 64.5°F18.1°C 71% 18.6 mph N29.9 kmh N 24.2 mph38.9 kmh 28.91 in979.0 mb 0.00 in0.0 mm 0.00 in0.0 mm 0.00 in0.0 mm
12:52 AM 74.5°F23.6°C 64.5°F18.1°C 71% 13.0 mph N20.9 kmh N 24.2 mph38.9 kmh 28.90 in978.7 mb 0.00 in0.0 mm 0.00 in0.0 mm 0.00 in0.0 mm
12:51 AM 74.7°F23.7°C 64.7°F18.2°C 71% 18.8 mph N30.3 kmh N 24.2 mph38.9 kmh 28.89 in978.3 mb 0.00 in0.0 mm 0.00 in0.0 mm 0.00 in0.0 mm
12:50 AM 74.8°F23.8°C 64.8°F18.2°C 71% 16.1 mph N25.9 kmh N 18.1 mph29.1 kmh 28.89 in978.3 mb 0.00 in0.0 mm 0.00 in0.0 mm 0.00 in0.0 mm
12:49 AM 74.8°F23.8°C 64.8°F18.2°C 71% 13.9 mph NNE22.4 kmh NNE 18.1 mph29.1 kmh 28.89 in978.3 mb 0.00 in0.0 mm 0.00 in0.0 mm 0.00 in0.0 mm
12:48 AM 74.8°F23.8°C 65.2°F18.4°C 72% 7.8 mph NE12.6 kmh NE 18.1 mph29.1 kmh 28.89 in978.3 mb 0.00 in0.0 mm 0.00 in0.0 mm 0.00 in0.0 mm
12:47 AM 74.8°F23.8°C 65.2°F18.4°C 72% 9.8 mph NE15.8 kmh NE 18.1 mph29.1 kmh 28.89 in978.3 mb 0.00 in0.0 mm 0.00 in0.0 mm 0.00 in0.0 mm
12:46 AM 74.8°F23.8°C 65.2°F18.4°C 72% 18.1 mph NE29.1 kmh NE 18.1 mph29.1 kmh 28.89 in978.3 mb 0.00 in0.0 mm 0.00 in0.0 mm 0.00 in0.0 mm
12:45 AM 74.8°F23.8°C 65.2°F18.4°C 72% 7.8 mph NE12.6 kmh NE 17.9 mph28.8 kmh 28.89 in978.3 mb 0.00 in0.0 mm 0.00 in0.0 mm 0.00 in0.0 mm
12:44 AM 75.0°F23.9°C 65.4°F18.6°C 72% 12.8 mph ENE20.6 kmh ENE 17.9 mph28.8 kmh 28.88 in978.0 mb 0.00 in0.0 mm 0.00 in0.0 mm 0.00 in0.0 mm
12:43 AM 75.0°F23.9°C 65.4°F18.6°C 72% 12.8 mph E20.6 kmh E 16.1 mph25.9 kmh 28.88 in978.0 mb 0.00 in0.0 mm 0.00 in0.0 mm 0.00 in0.0 mm
12:42 AM 75.0°F23.9°C 65.4°F18.6°C 72% 15.2 mph E24.5 kmh E 15.2 mph24.5 kmh 28.88 in978.0 mb 0.00 in0.0 mm 0.00 in0.0 mm 0.00 in0.0 mm
12:41 AM 75.0°F23.9°C 65.4°F18.6°C 72% 11.4 mph E18.3 kmh E 13.4 mph21.6 kmh 28.88 in978.0 mb 0.00 in0.0 mm 0.00 in0.0 mm 0.00 in0.0 mm
12:40 AM 75.0°F23.9°C 65.4°F18.6°C 72% 6.0 mph E9.7 kmh E 13.4 mph21.6 kmh 28.88 in978.0 mb 0.00 in0.0 mm 0.00 in0.0 mm 0.00 in0.0 mm
12:39 AM 75.0°F23.9°C 65.4°F18.6°C 72% 6.0 mph E9.7 kmh E 42.9 mph69.0 kmh 28.88 in978.0 mb 0.00 in0.0 mm 0.00 in0.0 mm 0.00 in0.0 mm
12:38 AM 75.0°F23.9°C 65.4°F18.6°C 72% 6.7 mph E10.8 kmh E 42.9 mph69.0 kmh 28.88 in978.0 mb 0.00 in0.0 mm 0.00 in0.0 mm 0.00 in0.0 mm
12:37 AM 75.0°F23.9°C 65.4°F18.6°C 72% 9.4 mph E15.1 kmh E 42.9 mph69.0 kmh 28.88 in978.0 mb 0.00 in0.0 mm 0.00 in0.0 mm 0.00 in0.0 mm
12:36 AM 75.0°F23.9°C 65.0°F18.3°C 71% 8.3 mph E13.4 kmh E 42.9 mph69.0 kmh 28.88 in978.0 mb 0.00 in0.0 mm 0.00 in0.0 mm 0.00 in0.0 mm
12:35 AM 75.0°F23.9°C 65.0°F18.3°C 71% 7.6 mph E12.2 kmh E 42.9 mph69.0 kmh 28.88 in978.0 mb 0.00 in0.0 mm 0.00 in0.0 mm 0.00 in0.0 mm
12:34 AM 75.0°F23.9°C 65.0°F18.3°C 71% 11.4 mph E18.3 kmh E 42.9 mph69.0 kmh 28.88 in978.0 mb 0.00 in0.0 mm 0.00 in0.0 mm 0.00 in0.0 mm
12:33 AM 75.0°F23.9°C 65.0°F18.3°C 71% 13.4 mph E21.6 kmh E 42.9 mph69.0 kmh 28.88 in978.0 mb 0.00 in0.0 mm 0.00 in0.0 mm 0.00 in0.0 mm
12:32 AM 75.0°F23.9°C 65.0°F18.3°C 71% 8.5 mph E13.7 kmh E 42.9 mph69.0 kmh 28.88 in978.0 mb 0.00 in0.0 mm 0.00 in0.0 mm 0.00 in0.0 mm
12:31 AM 75.0°F23.9°C 65.0°F18.3°C 71% 12.5 mph E20.1 kmh E 42.9 mph69.0 kmh 28.88 in978.0 mb 0.00 in0.0 mm 0.00 in0.0 mm 0.00 in0.0 mm
12:30 AM 75.0°F23.9°C 65.0°F18.3°C 71% 12.3 mph E19.8 kmh E 42.9 mph69.0 kmh 28.88 in978.0 mb 0.00 in0.0 mm 0.00 in0.0 mm 0.00 in0.0 mm
12:29 AM 75.0°F23.9°C 65.0°F18.3°C 71% 13.4 mph E21.6 kmh E 21.9 mph35.2 kmh 28.87 in977.7 mb 0.00 in0.0 mm 0.00 in0.0 mm 0.00 in0.0 mm
12:28 AM 75.0°F23.9°C 65.0°F18.3°C 71% 15.4 mph ENE24.8 kmh ENE 46.1 mph74.2 kmh 28.88 in978.0 mb 0.00 in0.0 mm 0.00 in0.0 mm 0.00 in0.0 mm
12:27 AM 75.0°F23.9°C 65.0°F18.3°C 71% 8.1 mph ENE13.0 kmh ENE 46.1 mph74.2 kmh 28.88 in978.0 mb 0.00 in0.0 mm 0.00 in0.0 mm 0.00 in0.0 mm
12:26 AM 75.0°F23.9°C 65.0°F18.3°C 71% 11.9 mph ENE19.2 kmh ENE 46.1 mph74.2 kmh 28.88 in978.0 mb 0.00 in0.0 mm 0.00 in0.0 mm 0.00 in0.0 mm
12:25 AM 75.0°F23.9°C 65.0°F18.3°C 71% 7.4 mph ENE11.9 kmh ENE 46.1 mph74.2 kmh 28.88 in978.0 mb 0.00 in0.0 mm 0.00 in0.0 mm 0.00 in0.0 mm
12:24 AM 75.0°F23.9°C 65.0°F18.3°C 71% 7.6 mph ENE12.2 kmh ENE 46.1 mph74.2 kmh 28.88 in978.0 mb 0.00 in0.0 mm 0.00 in0.0 mm 0.00 in0.0 mm
12:23 AM 75.0°F23.9°C 64.6°F18.1°C 70% 21.9 mph ENE35.2 kmh ENE 46.1 mph74.2 kmh 28.88 in978.0 mb 0.00 in0.0 mm 0.00 in0.0 mm 0.00 in0.0 mm
12:22 AM 75.0°F23.9°C 64.6°F18.1°C 70% 13.4 mph NE21.6 kmh NE 46.1 mph74.2 kmh 28.88 in978.0 mb 0.00 in0.0 mm 0.00 in0.0 mm 0.00 in0.0 mm
12:21 AM 75.0°F23.9°C 64.6°F18.1°C 70% 9.8 mph NE15.8 kmh NE 46.1 mph74.2 kmh 28.88 in978.0 mb 0.00 in0.0 mm 0.00 in0.0 mm 0.00 in0.0 mm
12:20 AM 75.0°F23.9°C 64.6°F18.1°C 70% 15.2 mph NE24.5 kmh NE 46.1 mph74.2 kmh 28.88 in978.0 mb 0.00 in0.0 mm 0.00 in0.0 mm 0.00 in0.0 mm
12:19 AM 75.0°F23.9°C 64.6°F18.1°C 70% 17.0 mph NE27.4 kmh NE 46.1 mph74.2 kmh 28.88 in978.0 mb 0.00 in0.0 mm 0.00 in0.0 mm 0.00 in0.0 mm
12:18 AM 75.0°F23.9°C 65.0°F18.3°C 71% 8.9 mph NE14.3 kmh NE 24.8 mph39.9 kmh 28.88 in978.0 mb 0.00 in0.0 mm 0.00 in0.0 mm 0.00 in0.0 mm
12:17 AM 75.0°F23.9°C 65.0°F18.3°C 71% 12.3 mph NE19.8 kmh NE 24.8 mph39.9 kmh 28.89 in978.3 mb 0.00 in0.0 mm 0.00 in0.0 mm 0.00 in0.0 mm
12:16 AM 75.0°F23.9°C 64.6°F18.1°C 70% 14.3 mph NE23.0 kmh NE 24.8 mph39.9 kmh 28.89 in978.3 mb 0.00 in0.0 mm 0.00 in0.0 mm 0.00 in0.0 mm
12:15 AM 75.0°F23.9°C 64.6°F18.1°C 70% 8.5 mph NE13.7 kmh NE 24.8 mph39.9 kmh 28.89 in978.3 mb 0.00 in0.0 mm 0.00 in0.0 mm 0.00 in0.0 mm
12:14 AM 75.0°F23.9°C 64.6°F18.1°C 70% 8.3 mph NE13.4 kmh NE 24.8 mph39.9 kmh 28.89 in978.3 mb 0.00 in0.0 mm 0.00 in0.0 mm 0.00 in0.0 mm
12:13 AM 75.0°F23.9°C 64.6°F18.1°C 70% 12.1 mph NE19.5 kmh NE 24.8 mph39.9 kmh 28.89 in978.3 mb 0.00 in0.0 mm 0.00 in0.0 mm 0.00 in0.0 mm
12:12 AM 75.0°F23.9°C 64.6°F18.1°C 70% 9.4 mph NE15.1 kmh NE 12.3 mph19.8 kmh 28.89 in978.3 mb 0.00 in0.0 mm 0.00 in0.0 mm 0.00 in0.0 mm
12:11 AM 75.0°F23.9°C 64.6°F18.1°C 70% 2.9 mph NE4.7 kmh NE 12.3 mph19.8 kmh 28.89 in978.3 mb 0.00 in0.0 mm 0.00 in0.0 mm 0.00 in0.0 mm
12:10 AM 75.0°F23.9°C 65.0°F18.3°C 71% 5.4 mph NE8.7 kmh NE 12.3 mph19.8 kmh 28.89 in978.3 mb 0.00 in0.0 mm 0.00 in0.0 mm 0.00 in0.0 mm
12:09 AM 75.0°F23.9°C 65.0°F18.3°C 71% 7.2 mph NE11.6 kmh NE 12.3 mph19.8 kmh 28.89 in978.3 mb 0.00 in0.0 mm 0.00 in0.0 mm 0.00 in0.0 mm
12:08 AM 75.0°F23.9°C 65.0°F18.3°C 71% 12.3 mph NE19.8 kmh NE 12.3 mph19.8 kmh 28.89 in978.3 mb 0.00 in0.0 mm 0.00 in0.0 mm 0.00 in0.0 mm
12:07 AM 75.2°F24.0°C 65.2°F18.4°C 71% 6.5 mph NE10.5 kmh NE 7.8 mph12.6 kmh 28.89 in978.3 mb 0.00 in0.0 mm 0.00 in0.0 mm 0.00 in0.0 mm
12:06 AM 75.2°F24.0°C 65.2°F18.4°C 71% 5.4 mph NE8.7 kmh NE 7.6 mph12.2 kmh 28.89 in978.3 mb 0.00 in0.0 mm 0.00 in0.0 mm 0.00 in0.0 mm
12:05 AM 75.2°F24.0°C 65.2°F18.4°C 71% 7.2 mph NE11.6 kmh NE 7.6 mph12.2 kmh 28.89 in978.3 mb 0.00 in0.0 mm 0.00 in0.0 mm 0.00 in0.0 mm
12:04 AM 75.2°F24.0°C 64.8°F18.2°C 70% 2.5 mph ENE4.0 kmh ENE 5.1 mph8.2 kmh 28.89 in978.3 mb 0.00 in0.0 mm 0.00 in0.0 mm 0.00 in0.0 mm
12:03 AM 75.2°F24.0°C 64.8°F18.2°C 70% 1.1 mph E1.8 kmh E 4.0 mph6.4 kmh 28.89 in978.3 mb 0.00 in0.0 mm 0.00 in0.0 mm 0.00 in0.0 mm
12:02 AM 76.1°F24.5°C 64.4°F18.0°C 68% Calm Calm -- 28.89 in978.3 mb 0.00 in0.0 mm 0.00 in0.0 mm 0.00 in0.0 mm
12:00 AM 75.4°F24.1°C 64.9°F18.3°C 70% 1.1 mph E1.8 kmh E 5.4 mph8.7 kmh 28.88 in978.0 mb 0.00 in0.0 mm 0.00 in0.0 mm 0.00 in0.0 mm